<?xml version="1.0" encoding="UTF-8" standalone="no" ?>
<gpx xmlns="http://www.topografix.com/GPX/1/1" xmlns:xsi="http://www.w3.org/2001/XMLSchema-instance" xsi:schemaLocation="http://www.topografix.com/GPX/1/1 http://www.topografix.com/GPX/1/1/gpx.xsd" version="1.1" creator="VisuGPX - https://www.visugpx.com">
  <metadata>
    <name>GTR Etape 3</name>
    <desc><![CDATA[

de Oingt à St Pierre la Palud]]></desc>
  </metadata>
  <trk>
    <name><![CDATA[GTR Etape 3]]></name>
    <desc><![CDATA[de Oingt à St Pierre la Palud]]></desc>
    <extensions>
      <line xmlns="http://www.topografix.com/GPX/gpx_style/0/2">
        <color>FF0000</color>
        <width>6</width>
      </line>
    </extensions>
    <trkseg>
      <trkpt lat="45.94716" lon="4.57845">
        <ele>480</ele>
        <time>2019-06-28T19:48:52Z</time>
      </trkpt>
      <trkpt lat="45.94716" lon="4.57845">
        <ele>480</ele>
        <time>2019-06-28T19:48:52Z</time>
      </trkpt>
      <trkpt lat="45.94712" lon="4.57872">
        <ele>482</ele>
        <time>2019-06-28T19:48:57Z</time>
      </trkpt>
      <trkpt lat="45.94701" lon="4.57911">
        <ele>484</ele>
        <time>2019-06-28T19:49:03Z</time>
      </trkpt>
      <trkpt lat="45.94685" lon="4.57949">
        <ele>488</ele>
        <time>2019-06-28T19:49:11Z</time>
      </trkpt>
      <trkpt lat="45.94685" lon="4.58026">
        <ele>496</ele>
        <time>2019-06-28T19:49:23Z</time>
      </trkpt>
      <trkpt lat="45.94691" lon="4.5807">
        <ele>502</ele>
        <time>2019-06-28T19:49:30Z</time>
      </trkpt>
      <trkpt lat="45.94696" lon="4.58079">
        <ele>504</ele>
        <time>2019-06-28T19:49:32Z</time>
      </trkpt>
      <trkpt lat="45.94721" lon="4.58095">
        <ele>509</ele>
        <time>2019-06-28T19:49:39Z</time>
      </trkpt>
      <trkpt lat="45.9472" lon="4.58098">
        <ele>510</ele>
        <time>2019-06-28T19:49:39Z</time>
      </trkpt>
      <trkpt lat="45.94679" lon="4.58108">
        <ele>507</ele>
        <time>2019-06-28T19:49:49Z</time>
      </trkpt>
      <trkpt lat="45.94643" lon="4.58125">
        <ele>505</ele>
        <time>2019-06-28T19:49:58Z</time>
      </trkpt>
      <trkpt lat="45.94636" lon="4.58195">
        <ele>516</ele>
        <time>2019-06-28T19:50:09Z</time>
      </trkpt>
      <trkpt lat="45.94639" lon="4.58201">
        <ele>517</ele>
        <time>2019-06-28T19:50:11Z</time>
      </trkpt>
      <trkpt lat="45.94665" lon="4.58207">
        <ele>521</ele>
        <time>2019-06-28T19:50:17Z</time>
      </trkpt>
      <trkpt lat="45.9467" lon="4.58212">
        <ele>522</ele>
        <time>2019-06-28T19:50:18Z</time>
      </trkpt>
      <trkpt lat="45.94672" lon="4.58218">
        <ele>524</ele>
        <time>2019-06-28T19:50:19Z</time>
      </trkpt>
      <trkpt lat="45.94673" lon="4.58226">
        <ele>525</ele>
        <time>2019-06-28T19:50:21Z</time>
      </trkpt>
      <trkpt lat="45.94663" lon="4.58277">
        <ele>525</ele>
        <time>2019-06-28T19:50:29Z</time>
      </trkpt>
      <trkpt lat="45.94745" lon="4.58315">
        <ele>527</ele>
        <time>2019-06-28T19:50:49Z</time>
      </trkpt>
      <trkpt lat="45.94786" lon="4.58341">
        <ele>526</ele>
        <time>2019-06-28T19:51:00Z</time>
      </trkpt>
      <trkpt lat="45.94826" lon="4.58358">
        <ele>527</ele>
        <time>2019-06-28T19:51:09Z</time>
      </trkpt>
      <trkpt lat="45.9486" lon="4.58367">
        <ele>527</ele>
        <time>2019-06-28T19:51:18Z</time>
      </trkpt>
      <trkpt lat="45.94895" lon="4.5837">
        <ele>527</ele>
        <time>2019-06-28T19:51:26Z</time>
      </trkpt>
      <trkpt lat="45.94899" lon="4.58383">
        <ele>527</ele>
        <time>2019-06-28T19:51:28Z</time>
      </trkpt>
      <trkpt lat="45.94907" lon="4.58472">
        <ele>525</ele>
        <time>2019-06-28T19:51:43Z</time>
      </trkpt>
      <trkpt lat="45.94947" lon="4.58582">
        <ele>523</ele>
        <time>2019-06-28T19:52:03Z</time>
      </trkpt>
      <trkpt lat="45.94956" lon="4.58629">
        <ele>523</ele>
        <time>2019-06-28T19:52:11Z</time>
      </trkpt>
      <trkpt lat="45.94954" lon="4.58674">
        <ele>522</ele>
        <time>2019-06-28T19:52:18Z</time>
      </trkpt>
      <trkpt lat="45.94944" lon="4.58709">
        <ele>522</ele>
        <time>2019-06-28T19:52:24Z</time>
      </trkpt>
      <trkpt lat="45.94893" lon="4.58782">
        <ele>521</ele>
        <time>2019-06-28T19:52:41Z</time>
      </trkpt>
      <trkpt lat="45.94863" lon="4.58832">
        <ele>524</ele>
        <time>2019-06-28T19:52:52Z</time>
      </trkpt>
      <trkpt lat="45.94834" lon="4.58913">
        <ele>531</ele>
        <time>2019-06-28T19:53:06Z</time>
      </trkpt>
      <trkpt lat="45.9484" lon="4.5897">
        <ele>533</ele>
        <time>2019-06-28T19:53:16Z</time>
      </trkpt>
      <trkpt lat="45.94875" lon="4.5903">
        <ele>538</ele>
        <time>2019-06-28T19:53:29Z</time>
      </trkpt>
      <trkpt lat="45.9488" lon="4.59062">
        <ele>540</ele>
        <time>2019-06-28T19:53:34Z</time>
      </trkpt>
      <trkpt lat="45.94877" lon="4.59103">
        <ele>544</ele>
        <time>2019-06-28T19:53:41Z</time>
      </trkpt>
      <trkpt lat="45.94885" lon="4.59141">
        <ele>548</ele>
        <time>2019-06-28T19:53:47Z</time>
      </trkpt>
      <trkpt lat="45.94888" lon="4.59176">
        <ele>552</ele>
        <time>2019-06-28T19:53:53Z</time>
      </trkpt>
      <trkpt lat="45.9488" lon="4.59248">
        <ele>557</ele>
        <time>2019-06-28T19:54:05Z</time>
      </trkpt>
      <trkpt lat="45.9488" lon="4.59267">
        <ele>557</ele>
        <time>2019-06-28T19:54:08Z</time>
      </trkpt>
      <trkpt lat="45.94897" lon="4.59304">
        <ele>561</ele>
        <time>2019-06-28T19:54:15Z</time>
      </trkpt>
      <trkpt lat="45.94928" lon="4.59356">
        <ele>564</ele>
        <time>2019-06-28T19:54:26Z</time>
      </trkpt>
      <trkpt lat="45.94934" lon="4.59361">
        <ele>564</ele>
        <time>2019-06-28T19:54:28Z</time>
      </trkpt>
      <trkpt lat="45.94942" lon="4.59362">
        <ele>565</ele>
        <time>2019-06-28T19:54:29Z</time>
      </trkpt>
      <trkpt lat="45.94956" lon="4.59404">
        <ele>563</ele>
        <time>2019-06-28T19:54:37Z</time>
      </trkpt>
      <trkpt lat="45.94975" lon="4.59438">
        <ele>563</ele>
        <time>2019-06-28T19:54:44Z</time>
      </trkpt>
      <trkpt lat="45.94994" lon="4.59485">
        <ele>561</ele>
        <time>2019-06-28T19:54:53Z</time>
      </trkpt>
      <trkpt lat="45.95001" lon="4.59753">
        <ele>553</ele>
        <time>2019-06-28T19:55:36Z</time>
      </trkpt>
      <trkpt lat="45.95009" lon="4.59803">
        <ele>554</ele>
        <time>2019-06-28T19:55:45Z</time>
      </trkpt>
      <trkpt lat="45.9501" lon="4.59869">
        <ele>554</ele>
        <time>2019-06-28T19:55:56Z</time>
      </trkpt>
      <trkpt lat="45.95009" lon="4.60054">
        <ele>557</ele>
        <time>2019-06-28T19:56:26Z</time>
      </trkpt>
      <trkpt lat="45.95004" lon="4.60102">
        <ele>558</ele>
        <time>2019-06-28T19:56:33Z</time>
      </trkpt>
      <trkpt lat="45.94997" lon="4.60133">
        <ele>559</ele>
        <time>2019-06-28T19:56:39Z</time>
      </trkpt>
      <trkpt lat="45.95007" lon="4.60155">
        <ele>563</ele>
        <time>2019-06-28T19:56:43Z</time>
      </trkpt>
      <trkpt lat="45.95016" lon="4.60221">
        <ele>570</ele>
        <time>2019-06-28T19:56:54Z</time>
      </trkpt>
      <trkpt lat="45.9503" lon="4.60262">
        <ele>573</ele>
        <time>2019-06-28T19:57:01Z</time>
      </trkpt>
      <trkpt lat="45.95015" lon="4.60273">
        <ele>572</ele>
        <time>2019-06-28T19:57:05Z</time>
      </trkpt>
      <trkpt lat="45.95006" lon="4.60275">
        <ele>572</ele>
        <time>2019-06-28T19:57:07Z</time>
      </trkpt>
      <trkpt lat="45.95004" lon="4.60284">
        <ele>572</ele>
        <time>2019-06-28T19:57:09Z</time>
      </trkpt>
      <trkpt lat="45.94964" lon="4.60348">
        <ele>569</ele>
        <time>2019-06-28T19:57:23Z</time>
      </trkpt>
      <trkpt lat="45.94922" lon="4.60406">
        <ele>572</ele>
        <time>2019-06-28T19:57:36Z</time>
      </trkpt>
      <trkpt lat="45.94894" lon="4.60455">
        <ele>569</ele>
        <time>2019-06-28T19:57:47Z</time>
      </trkpt>
      <trkpt lat="45.94868" lon="4.60489">
        <ele>568</ele>
        <time>2019-06-28T19:57:55Z</time>
      </trkpt>
      <trkpt lat="45.9484" lon="4.60542">
        <ele>571</ele>
        <time>2019-06-28T19:58:06Z</time>
      </trkpt>
      <trkpt lat="45.9483" lon="4.60554">
        <ele>572</ele>
        <time>2019-06-28T19:58:09Z</time>
      </trkpt>
      <trkpt lat="45.9482" lon="4.6058">
        <ele>573</ele>
        <time>2019-06-28T19:58:14Z</time>
      </trkpt>
      <trkpt lat="45.94816" lon="4.60605">
        <ele>573</ele>
        <time>2019-06-28T19:58:18Z</time>
      </trkpt>
      <trkpt lat="45.94812" lon="4.60635">
        <ele>573</ele>
        <time>2019-06-28T19:58:23Z</time>
      </trkpt>
      <trkpt lat="45.94815" lon="4.6066">
        <ele>574</ele>
        <time>2019-06-28T19:58:27Z</time>
      </trkpt>
      <trkpt lat="45.94855" lon="4.6078">
        <ele>579</ele>
        <time>2019-06-28T19:58:49Z</time>
      </trkpt>
      <trkpt lat="45.9486" lon="4.60812">
        <ele>579</ele>
        <time>2019-06-28T19:58:54Z</time>
      </trkpt>
      <trkpt lat="45.94873" lon="4.60867">
        <ele>576</ele>
        <time>2019-06-28T19:59:03Z</time>
      </trkpt>
      <trkpt lat="45.94875" lon="4.60893">
        <ele>575</ele>
        <time>2019-06-28T19:59:08Z</time>
      </trkpt>
      <trkpt lat="45.94874" lon="4.60927">
        <ele>573</ele>
        <time>2019-06-28T19:59:13Z</time>
      </trkpt>
      <trkpt lat="45.94869" lon="4.6095">
        <ele>571</ele>
        <time>2019-06-28T19:59:17Z</time>
      </trkpt>
      <trkpt lat="45.94827" lon="4.6105">
        <ele>565</ele>
        <time>2019-06-28T19:59:36Z</time>
      </trkpt>
      <trkpt lat="45.94812" lon="4.61094">
        <ele>562</ele>
        <time>2019-06-28T19:59:44Z</time>
      </trkpt>
      <trkpt lat="45.94807" lon="4.61118">
        <ele>560</ele>
        <time>2019-06-28T19:59:48Z</time>
      </trkpt>
      <trkpt lat="45.94779" lon="4.61185">
        <ele>555</ele>
        <time>2019-06-28T20:00:01Z</time>
      </trkpt>
      <trkpt lat="45.94728" lon="4.61276">
        <ele>548</ele>
        <time>2019-06-28T20:00:20Z</time>
      </trkpt>
      <trkpt lat="45.94716" lon="4.61291">
        <ele>546</ele>
        <time>2019-06-28T20:00:23Z</time>
      </trkpt>
      <trkpt lat="45.94722" lon="4.61308">
        <ele>543</ele>
        <time>2019-06-28T20:00:26Z</time>
      </trkpt>
      <trkpt lat="45.94796" lon="4.61313">
        <ele>534</ele>
        <time>2019-06-28T20:00:44Z</time>
      </trkpt>
      <trkpt lat="45.94811" lon="4.61325">
        <ele>529</ele>
        <time>2019-06-28T20:00:48Z</time>
      </trkpt>
      <trkpt lat="45.94821" lon="4.61353">
        <ele>524</ele>
        <time>2019-06-28T20:00:53Z</time>
      </trkpt>
      <trkpt lat="45.94839" lon="4.61383">
        <ele>517</ele>
        <time>2019-06-28T20:00:59Z</time>
      </trkpt>
      <trkpt lat="45.94851" lon="4.61436">
        <ele>509</ele>
        <time>2019-06-28T20:01:08Z</time>
      </trkpt>
      <trkpt lat="45.94847" lon="4.61458">
        <ele>507</ele>
        <time>2019-06-28T20:01:12Z</time>
      </trkpt>
      <trkpt lat="45.94833" lon="4.61465">
        <ele>506</ele>
        <time>2019-06-28T20:01:16Z</time>
      </trkpt>
      <trkpt lat="45.94782" lon="4.61481">
        <ele>507</ele>
        <time>2019-06-28T20:01:28Z</time>
      </trkpt>
      <trkpt lat="45.94765" lon="4.615">
        <ele>504</ele>
        <time>2019-06-28T20:01:33Z</time>
      </trkpt>
      <trkpt lat="45.94715" lon="4.61567">
        <ele>495</ele>
        <time>2019-06-28T20:01:49Z</time>
      </trkpt>
      <trkpt lat="45.94699" lon="4.61582">
        <ele>493</ele>
        <time>2019-06-28T20:01:53Z</time>
      </trkpt>
      <trkpt lat="45.94694" lon="4.61593">
        <ele>491</ele>
        <time>2019-06-28T20:01:55Z</time>
      </trkpt>
      <trkpt lat="45.94676" lon="4.61618">
        <ele>488</ele>
        <time>2019-06-28T20:02:01Z</time>
      </trkpt>
      <trkpt lat="45.9464" lon="4.61643">
        <ele>484</ele>
        <time>2019-06-28T20:02:10Z</time>
      </trkpt>
      <trkpt lat="45.94608" lon="4.61677">
        <ele>479</ele>
        <time>2019-06-28T20:02:20Z</time>
      </trkpt>
      <trkpt lat="45.94529" lon="4.61717">
        <ele>478</ele>
        <time>2019-06-28T20:02:39Z</time>
      </trkpt>
      <trkpt lat="45.94502" lon="4.61734">
        <ele>478</ele>
        <time>2019-06-28T20:02:46Z</time>
      </trkpt>
      <trkpt lat="45.94468" lon="4.61748">
        <ele>478</ele>
        <time>2019-06-28T20:02:54Z</time>
      </trkpt>
      <trkpt lat="45.94362" lon="4.61735">
        <ele>480</ele>
        <time>2019-06-28T20:03:19Z</time>
      </trkpt>
      <trkpt lat="45.94342" lon="4.61745">
        <ele>476</ele>
        <time>2019-06-28T20:03:24Z</time>
      </trkpt>
      <trkpt lat="45.9432" lon="4.61744">
        <ele>475</ele>
        <time>2019-06-28T20:03:29Z</time>
      </trkpt>
      <trkpt lat="45.94314" lon="4.61749">
        <ele>473</ele>
        <time>2019-06-28T20:03:31Z</time>
      </trkpt>
      <trkpt lat="45.94307" lon="4.61798">
        <ele>465</ele>
        <time>2019-06-28T20:03:39Z</time>
      </trkpt>
      <trkpt lat="45.943" lon="4.61802">
        <ele>464</ele>
        <time>2019-06-28T20:03:41Z</time>
      </trkpt>
      <trkpt lat="45.94183" lon="4.61788">
        <ele>460</ele>
        <time>2019-06-28T20:04:08Z</time>
      </trkpt>
      <trkpt lat="45.94135" lon="4.6178">
        <ele>462</ele>
        <time>2019-06-28T20:04:20Z</time>
      </trkpt>
      <trkpt lat="45.94129" lon="4.6179">
        <ele>460</ele>
        <time>2019-06-28T20:04:22Z</time>
      </trkpt>
      <trkpt lat="45.94126" lon="4.61809">
        <ele>458</ele>
        <time>2019-06-28T20:04:25Z</time>
      </trkpt>
      <trkpt lat="45.94113" lon="4.6181">
        <ele>458</ele>
        <time>2019-06-28T20:04:28Z</time>
      </trkpt>
      <trkpt lat="45.94097" lon="4.61807">
        <ele>459</ele>
        <time>2019-06-28T20:04:32Z</time>
      </trkpt>
      <trkpt lat="45.94081" lon="4.61798">
        <ele>460</ele>
        <time>2019-06-28T20:04:36Z</time>
      </trkpt>
      <trkpt lat="45.94063" lon="4.61784">
        <ele>461</ele>
        <time>2019-06-28T20:04:40Z</time>
      </trkpt>
      <trkpt lat="45.94035" lon="4.6174">
        <ele>464</ele>
        <time>2019-06-28T20:04:50Z</time>
      </trkpt>
      <trkpt lat="45.94012" lon="4.61713">
        <ele>463</ele>
        <time>2019-06-28T20:04:57Z</time>
      </trkpt>
      <trkpt lat="45.93993" lon="4.61667">
        <ele>463</ele>
        <time>2019-06-28T20:05:06Z</time>
      </trkpt>
      <trkpt lat="45.9396" lon="4.61628">
        <ele>456</ele>
        <time>2019-06-28T20:05:16Z</time>
      </trkpt>
      <trkpt lat="45.93943" lon="4.61604">
        <ele>452</ele>
        <time>2019-06-28T20:05:21Z</time>
      </trkpt>
      <trkpt lat="45.93927" lon="4.61587">
        <ele>450</ele>
        <time>2019-06-28T20:05:26Z</time>
      </trkpt>
      <trkpt lat="45.93897" lon="4.61603">
        <ele>446</ele>
        <time>2019-06-28T20:05:33Z</time>
      </trkpt>
      <trkpt lat="45.93857" lon="4.61632">
        <ele>440</ele>
        <time>2019-06-28T20:05:44Z</time>
      </trkpt>
      <trkpt lat="45.93854" lon="4.61619">
        <ele>440</ele>
        <time>2019-06-28T20:05:46Z</time>
      </trkpt>
      <trkpt lat="45.938" lon="4.61629">
        <ele>432</ele>
        <time>2019-06-28T20:05:59Z</time>
      </trkpt>
      <trkpt lat="45.9377" lon="4.61639">
        <ele>427</ele>
        <time>2019-06-28T20:06:06Z</time>
      </trkpt>
      <trkpt lat="45.93745" lon="4.6164">
        <ele>424</ele>
        <time>2019-06-28T20:06:12Z</time>
      </trkpt>
      <trkpt lat="45.93693" lon="4.61634">
        <ele>418</ele>
        <time>2019-06-28T20:06:24Z</time>
      </trkpt>
      <trkpt lat="45.93665" lon="4.61644">
        <ele>415</ele>
        <time>2019-06-28T20:06:31Z</time>
      </trkpt>
      <trkpt lat="45.93642" lon="4.6164">
        <ele>412</ele>
        <time>2019-06-28T20:06:36Z</time>
      </trkpt>
      <trkpt lat="45.93611" lon="4.61629">
        <ele>407</ele>
        <time>2019-06-28T20:06:44Z</time>
      </trkpt>
      <trkpt lat="45.93592" lon="4.61626">
        <ele>404</ele>
        <time>2019-06-28T20:06:48Z</time>
      </trkpt>
      <trkpt lat="45.93575" lon="4.61627">
        <ele>401</ele>
        <time>2019-06-28T20:06:52Z</time>
      </trkpt>
      <trkpt lat="45.93556" lon="4.61609">
        <ele>397</ele>
        <time>2019-06-28T20:06:57Z</time>
      </trkpt>
      <trkpt lat="45.93552" lon="4.61587">
        <ele>395</ele>
        <time>2019-06-28T20:07:01Z</time>
      </trkpt>
      <trkpt lat="45.93556" lon="4.61553">
        <ele>392</ele>
        <time>2019-06-28T20:07:07Z</time>
      </trkpt>
      <trkpt lat="45.93554" lon="4.61533">
        <ele>390</ele>
        <time>2019-06-28T20:07:10Z</time>
      </trkpt>
      <trkpt lat="45.93569" lon="4.61441">
        <ele>384</ele>
        <time>2019-06-28T20:07:25Z</time>
      </trkpt>
      <trkpt lat="45.93577" lon="4.61424">
        <ele>383</ele>
        <time>2019-06-28T20:07:29Z</time>
      </trkpt>
      <trkpt lat="45.93586" lon="4.6137">
        <ele>383</ele>
        <time>2019-06-28T20:07:38Z</time>
      </trkpt>
      <trkpt lat="45.93585" lon="4.61356">
        <ele>383</ele>
        <time>2019-06-28T20:07:40Z</time>
      </trkpt>
      <trkpt lat="45.93571" lon="4.61346">
        <ele>382</ele>
        <time>2019-06-28T20:07:44Z</time>
      </trkpt>
      <trkpt lat="45.93486" lon="4.61311">
        <ele>389</ele>
        <time>2019-06-28T20:08:04Z</time>
      </trkpt>
      <trkpt lat="45.93451" lon="4.61324">
        <ele>391</ele>
        <time>2019-06-28T20:08:13Z</time>
      </trkpt>
      <trkpt lat="45.93443" lon="4.61324">
        <ele>391</ele>
        <time>2019-06-28T20:08:15Z</time>
      </trkpt>
      <trkpt lat="45.93426" lon="4.61332">
        <ele>391</ele>
        <time>2019-06-28T20:08:19Z</time>
      </trkpt>
      <trkpt lat="45.93407" lon="4.61336">
        <ele>392</ele>
        <time>2019-06-28T20:08:23Z</time>
      </trkpt>
      <trkpt lat="45.93395" lon="4.61324">
        <ele>395</ele>
        <time>2019-06-28T20:08:27Z</time>
      </trkpt>
      <trkpt lat="45.93382" lon="4.61302">
        <ele>400</ele>
        <time>2019-06-28T20:08:31Z</time>
      </trkpt>
      <trkpt lat="45.93367" lon="4.61293">
        <ele>403</ele>
        <time>2019-06-28T20:08:35Z</time>
      </trkpt>
      <trkpt lat="45.93353" lon="4.61296">
        <ele>403</ele>
        <time>2019-06-28T20:08:38Z</time>
      </trkpt>
      <trkpt lat="45.93344" lon="4.61304">
        <ele>402</ele>
        <time>2019-06-28T20:08:41Z</time>
      </trkpt>
      <trkpt lat="45.933" lon="4.61324">
        <ele>402</ele>
        <time>2019-06-28T20:08:52Z</time>
      </trkpt>
      <trkpt lat="45.93261" lon="4.61323">
        <ele>405</ele>
        <time>2019-06-28T20:09:01Z</time>
      </trkpt>
      <trkpt lat="45.93232" lon="4.61331">
        <ele>405</ele>
        <time>2019-06-28T20:09:08Z</time>
      </trkpt>
      <trkpt lat="45.93067" lon="4.61358">
        <ele>410</ele>
        <time>2019-06-28T20:09:46Z</time>
      </trkpt>
      <trkpt lat="45.93039" lon="4.61351">
        <ele>414</ele>
        <time>2019-06-28T20:09:53Z</time>
      </trkpt>
      <trkpt lat="45.93009" lon="4.61326">
        <ele>420</ele>
        <time>2019-06-28T20:10:01Z</time>
      </trkpt>
      <trkpt lat="45.9299" lon="4.61323">
        <ele>422</ele>
        <time>2019-06-28T20:10:06Z</time>
      </trkpt>
      <trkpt lat="45.9295" lon="4.61328">
        <ele>425</ele>
        <time>2019-06-28T20:10:15Z</time>
      </trkpt>
      <trkpt lat="45.92899" lon="4.6132">
        <ele>428</ele>
        <time>2019-06-28T20:10:27Z</time>
      </trkpt>
      <trkpt lat="45.92866" lon="4.61306">
        <ele>428</ele>
        <time>2019-06-28T20:10:35Z</time>
      </trkpt>
      <trkpt lat="45.92822" lon="4.61276">
        <ele>429</ele>
        <time>2019-06-28T20:10:46Z</time>
      </trkpt>
      <trkpt lat="45.92756" lon="4.61216">
        <ele>431</ele>
        <time>2019-06-28T20:11:05Z</time>
      </trkpt>
      <trkpt lat="45.92704" lon="4.61164">
        <ele>429</ele>
        <time>2019-06-28T20:11:19Z</time>
      </trkpt>
      <trkpt lat="45.92651" lon="4.61106">
        <ele>425</ele>
        <time>2019-06-28T20:11:35Z</time>
      </trkpt>
      <trkpt lat="45.92622" lon="4.61081">
        <ele>423</ele>
        <time>2019-06-28T20:11:43Z</time>
      </trkpt>
      <trkpt lat="45.926" lon="4.61075">
        <ele>421</ele>
        <time>2019-06-28T20:11:48Z</time>
      </trkpt>
      <trkpt lat="45.92589" lon="4.61076">
        <ele>420</ele>
        <time>2019-06-28T20:11:51Z</time>
      </trkpt>
      <trkpt lat="45.92557" lon="4.6112">
        <ele>417</ele>
        <time>2019-06-28T20:12:01Z</time>
      </trkpt>
      <trkpt lat="45.92549" lon="4.61123">
        <ele>417</ele>
        <time>2019-06-28T20:12:03Z</time>
      </trkpt>
      <trkpt lat="45.92542" lon="4.61121">
        <ele>417</ele>
        <time>2019-06-28T20:12:05Z</time>
      </trkpt>
      <trkpt lat="45.92525" lon="4.61083">
        <ele>419</ele>
        <time>2019-06-28T20:12:12Z</time>
      </trkpt>
      <trkpt lat="45.925" lon="4.6101">
        <ele>417</ele>
        <time>2019-06-28T20:12:25Z</time>
      </trkpt>
      <trkpt lat="45.92492" lon="4.60995">
        <ele>417</ele>
        <time>2019-06-28T20:12:28Z</time>
      </trkpt>
      <trkpt lat="45.92487" lon="4.60991">
        <ele>417</ele>
        <time>2019-06-28T20:12:30Z</time>
      </trkpt>
      <trkpt lat="45.92482" lon="4.60991">
        <ele>417</ele>
        <time>2019-06-28T20:12:31Z</time>
      </trkpt>
      <trkpt lat="45.92447" lon="4.61015">
        <ele>418</ele>
        <time>2019-06-28T20:12:40Z</time>
      </trkpt>
      <trkpt lat="45.92423" lon="4.6105">
        <ele>420</ele>
        <time>2019-06-28T20:12:48Z</time>
      </trkpt>
      <trkpt lat="45.92415" lon="4.61073">
        <ele>421</ele>
        <time>2019-06-28T20:12:52Z</time>
      </trkpt>
      <trkpt lat="45.92389" lon="4.61119">
        <ele>422</ele>
        <time>2019-06-28T20:13:02Z</time>
      </trkpt>
      <trkpt lat="45.92358" lon="4.612">
        <ele>416</ele>
        <time>2019-06-28T20:13:17Z</time>
      </trkpt>
      <trkpt lat="45.92326" lon="4.61231">
        <ele>414</ele>
        <time>2019-06-28T20:13:26Z</time>
      </trkpt>
      <trkpt lat="45.92314" lon="4.61253">
        <ele>413</ele>
        <time>2019-06-28T20:13:30Z</time>
      </trkpt>
      <trkpt lat="45.92281" lon="4.61301">
        <ele>412</ele>
        <time>2019-06-28T20:13:41Z</time>
      </trkpt>
      <trkpt lat="45.9224" lon="4.61398">
        <ele>408</ele>
        <time>2019-06-28T20:14:00Z</time>
      </trkpt>
      <trkpt lat="45.92224" lon="4.61428">
        <ele>407</ele>
        <time>2019-06-28T20:14:06Z</time>
      </trkpt>
      <trkpt lat="45.92205" lon="4.61455">
        <ele>406</ele>
        <time>2019-06-28T20:14:12Z</time>
      </trkpt>
      <trkpt lat="45.92147" lon="4.61533">
        <ele>398</ele>
        <time>2019-06-28T20:14:31Z</time>
      </trkpt>
      <trkpt lat="45.92132" lon="4.61544">
        <ele>397</ele>
        <time>2019-06-28T20:14:34Z</time>
      </trkpt>
      <trkpt lat="45.92099" lon="4.61559">
        <ele>395</ele>
        <time>2019-06-28T20:14:43Z</time>
      </trkpt>
      <trkpt lat="45.92084" lon="4.61569">
        <ele>393</ele>
        <time>2019-06-28T20:14:46Z</time>
      </trkpt>
      <trkpt lat="45.92062" lon="4.61596">
        <ele>390</ele>
        <time>2019-06-28T20:14:53Z</time>
      </trkpt>
      <trkpt lat="45.92044" lon="4.6163">
        <ele>387</ele>
        <time>2019-06-28T20:15:00Z</time>
      </trkpt>
      <trkpt lat="45.92027" lon="4.6165">
        <ele>386</ele>
        <time>2019-06-28T20:15:05Z</time>
      </trkpt>
      <trkpt lat="45.92011" lon="4.61654">
        <ele>386</ele>
        <time>2019-06-28T20:15:09Z</time>
      </trkpt>
      <trkpt lat="45.91999" lon="4.6167">
        <ele>385</ele>
        <time>2019-06-28T20:15:13Z</time>
      </trkpt>
      <trkpt lat="45.91985" lon="4.61695">
        <ele>381</ele>
        <time>2019-06-28T20:15:18Z</time>
      </trkpt>
      <trkpt lat="45.91977" lon="4.6173">
        <ele>377</ele>
        <time>2019-06-28T20:15:24Z</time>
      </trkpt>
      <trkpt lat="45.91973" lon="4.6177">
        <ele>373</ele>
        <time>2019-06-28T20:15:31Z</time>
      </trkpt>
      <trkpt lat="45.91947" lon="4.61814">
        <ele>370</ele>
        <time>2019-06-28T20:15:40Z</time>
      </trkpt>
      <trkpt lat="45.91924" lon="4.61845">
        <ele>367</ele>
        <time>2019-06-28T20:15:47Z</time>
      </trkpt>
      <trkpt lat="45.91896" lon="4.61876">
        <ele>365</ele>
        <time>2019-06-28T20:15:56Z</time>
      </trkpt>
      <trkpt lat="45.91853" lon="4.61902">
        <ele>361</ele>
        <time>2019-06-28T20:16:07Z</time>
      </trkpt>
      <trkpt lat="45.91828" lon="4.61922">
        <ele>359</ele>
        <time>2019-06-28T20:16:13Z</time>
      </trkpt>
      <trkpt lat="45.91778" lon="4.61951">
        <ele>355</ele>
        <time>2019-06-28T20:16:26Z</time>
      </trkpt>
      <trkpt lat="45.91774" lon="4.61956">
        <ele>354</ele>
        <time>2019-06-28T20:16:27Z</time>
      </trkpt>
      <trkpt lat="45.91771" lon="4.61971">
        <ele>352</ele>
        <time>2019-06-28T20:16:30Z</time>
      </trkpt>
      <trkpt lat="45.91827" lon="4.62023">
        <ele>350</ele>
        <time>2019-06-28T20:16:45Z</time>
      </trkpt>
      <trkpt lat="45.91854" lon="4.62052">
        <ele>349</ele>
        <time>2019-06-28T20:16:53Z</time>
      </trkpt>
      <trkpt lat="45.91873" lon="4.62076">
        <ele>348</ele>
        <time>2019-06-28T20:16:59Z</time>
      </trkpt>
      <trkpt lat="45.91882" lon="4.62092">
        <ele>348</ele>
        <time>2019-06-28T20:17:02Z</time>
      </trkpt>
      <trkpt lat="45.91881" lon="4.62098">
        <ele>348</ele>
        <time>2019-06-28T20:17:03Z</time>
      </trkpt>
      <trkpt lat="45.9187" lon="4.62114">
        <ele>347</ele>
        <time>2019-06-28T20:17:07Z</time>
      </trkpt>
      <trkpt lat="45.91835" lon="4.62158">
        <ele>342</ele>
        <time>2019-06-28T20:17:18Z</time>
      </trkpt>
      <trkpt lat="45.91817" lon="4.62172">
        <ele>341</ele>
        <time>2019-06-28T20:17:23Z</time>
      </trkpt>
      <trkpt lat="45.91768" lon="4.62178">
        <ele>340</ele>
        <time>2019-06-28T20:17:34Z</time>
      </trkpt>
      <trkpt lat="45.91724" lon="4.62187">
        <ele>338</ele>
        <time>2019-06-28T20:17:44Z</time>
      </trkpt>
      <trkpt lat="45.91677" lon="4.62191">
        <ele>337</ele>
        <time>2019-06-28T20:17:55Z</time>
      </trkpt>
      <trkpt lat="45.91622" lon="4.62201">
        <ele>337</ele>
        <time>2019-06-28T20:18:08Z</time>
      </trkpt>
      <trkpt lat="45.91599" lon="4.62211">
        <ele>337</ele>
        <time>2019-06-28T20:18:14Z</time>
      </trkpt>
      <trkpt lat="45.91483" lon="4.62306">
        <ele>337</ele>
        <time>2019-06-28T20:18:45Z</time>
      </trkpt>
      <trkpt lat="45.91432" lon="4.62342">
        <ele>338</ele>
        <time>2019-06-28T20:18:58Z</time>
      </trkpt>
      <trkpt lat="45.91407" lon="4.62353">
        <ele>338</ele>
        <time>2019-06-28T20:19:05Z</time>
      </trkpt>
      <trkpt lat="45.91367" lon="4.62366">
        <ele>336</ele>
        <time>2019-06-28T20:19:14Z</time>
      </trkpt>
      <trkpt lat="45.91361" lon="4.62364">
        <ele>335</ele>
        <time>2019-06-28T20:19:16Z</time>
      </trkpt>
      <trkpt lat="45.91358" lon="4.62347">
        <ele>335</ele>
        <time>2019-06-28T20:19:18Z</time>
      </trkpt>
      <trkpt lat="45.91373" lon="4.62262">
        <ele>336</ele>
        <time>2019-06-28T20:19:33Z</time>
      </trkpt>
      <trkpt lat="45.91384" lon="4.6211">
        <ele>338</ele>
        <time>2019-06-28T20:19:57Z</time>
      </trkpt>
      <trkpt lat="45.91397" lon="4.61986">
        <ele>345</ele>
        <time>2019-06-28T20:20:18Z</time>
      </trkpt>
      <trkpt lat="45.91413" lon="4.61921">
        <ele>351</ele>
        <time>2019-06-28T20:20:29Z</time>
      </trkpt>
      <trkpt lat="45.91434" lon="4.61859">
        <ele>356</ele>
        <time>2019-06-28T20:20:40Z</time>
      </trkpt>
      <trkpt lat="45.91433" lon="4.61846">
        <ele>357</ele>
        <time>2019-06-28T20:20:42Z</time>
      </trkpt>
      <trkpt lat="45.914" lon="4.61753">
        <ele>354</ele>
        <time>2019-06-28T20:20:59Z</time>
      </trkpt>
      <trkpt lat="45.91402" lon="4.61747">
        <ele>354</ele>
        <time>2019-06-28T20:21:00Z</time>
      </trkpt>
      <trkpt lat="45.91406" lon="4.61746">
        <ele>354</ele>
        <time>2019-06-28T20:21:01Z</time>
      </trkpt>
      <trkpt lat="45.9142" lon="4.61734">
        <ele>354</ele>
        <time>2019-06-28T20:21:05Z</time>
      </trkpt>
      <trkpt lat="45.91469" lon="4.61708">
        <ele>357</ele>
        <time>2019-06-28T20:21:17Z</time>
      </trkpt>
      <trkpt lat="45.91479" lon="4.61696">
        <ele>357</ele>
        <time>2019-06-28T20:21:20Z</time>
      </trkpt>
      <trkpt lat="45.91484" lon="4.61677">
        <ele>357</ele>
        <time>2019-06-28T20:21:24Z</time>
      </trkpt>
      <trkpt lat="45.91529" lon="4.61658">
        <ele>360</ele>
        <time>2019-06-28T20:21:35Z</time>
      </trkpt>
      <trkpt lat="45.9154" lon="4.61649">
        <ele>360</ele>
        <time>2019-06-28T20:21:38Z</time>
      </trkpt>
      <trkpt lat="45.91529" lon="4.61638">
        <ele>357</ele>
        <time>2019-06-28T20:21:41Z</time>
      </trkpt>
      <trkpt lat="45.91525" lon="4.6163">
        <ele>356</ele>
        <time>2019-06-28T20:21:42Z</time>
      </trkpt>
      <trkpt lat="45.91517" lon="4.61606">
        <ele>353</ele>
        <time>2019-06-28T20:21:47Z</time>
      </trkpt>
      <trkpt lat="45.91514" lon="4.61586">
        <ele>350</ele>
        <time>2019-06-28T20:21:50Z</time>
      </trkpt>
      <trkpt lat="45.91513" lon="4.61473">
        <ele>347</ele>
        <time>2019-06-28T20:22:08Z</time>
      </trkpt>
      <trkpt lat="45.91506" lon="4.61415">
        <ele>349</ele>
        <time>2019-06-28T20:22:18Z</time>
      </trkpt>
      <trkpt lat="45.91505" lon="4.61367">
        <ele>352</ele>
        <time>2019-06-28T20:22:26Z</time>
      </trkpt>
      <trkpt lat="45.91502" lon="4.6135">
        <ele>353</ele>
        <time>2019-06-28T20:22:29Z</time>
      </trkpt>
      <trkpt lat="45.91485" lon="4.61296">
        <ele>357</ele>
        <time>2019-06-28T20:22:38Z</time>
      </trkpt>
      <trkpt lat="45.91463" lon="4.61253">
        <ele>360</ele>
        <time>2019-06-28T20:22:47Z</time>
      </trkpt>
      <trkpt lat="45.91457" lon="4.61236">
        <ele>360</ele>
        <time>2019-06-28T20:22:50Z</time>
      </trkpt>
      <trkpt lat="45.91396" lon="4.61131">
        <ele>359</ele>
        <time>2019-06-28T20:23:12Z</time>
      </trkpt>
      <trkpt lat="45.91341" lon="4.60998">
        <ele>362</ele>
        <time>2019-06-28T20:23:37Z</time>
      </trkpt>
      <trkpt lat="45.91306" lon="4.60901">
        <ele>363</ele>
        <time>2019-06-28T20:23:55Z</time>
      </trkpt>
      <trkpt lat="45.91299" lon="4.60856">
        <ele>363</ele>
        <time>2019-06-28T20:24:03Z</time>
      </trkpt>
      <trkpt lat="45.91298" lon="4.60817">
        <ele>363</ele>
        <time>2019-06-28T20:24:09Z</time>
      </trkpt>
      <trkpt lat="45.91294" lon="4.60815">
        <ele>363</ele>
        <time>2019-06-28T20:24:10Z</time>
      </trkpt>
      <trkpt lat="45.91289" lon="4.60817">
        <ele>363</ele>
        <time>2019-06-28T20:24:11Z</time>
      </trkpt>
      <trkpt lat="45.91172" lon="4.60909">
        <ele>354</ele>
        <time>2019-06-28T20:24:42Z</time>
      </trkpt>
      <trkpt lat="45.91156" lon="4.60933">
        <ele>352</ele>
        <time>2019-06-28T20:24:48Z</time>
      </trkpt>
      <trkpt lat="45.91133" lon="4.60981">
        <ele>350</ele>
        <time>2019-06-28T20:24:57Z</time>
      </trkpt>
      <trkpt lat="45.91124" lon="4.60988">
        <ele>350</ele>
        <time>2019-06-28T20:25:00Z</time>
      </trkpt>
      <trkpt lat="45.91092" lon="4.60993">
        <ele>349</ele>
        <time>2019-06-28T20:25:07Z</time>
      </trkpt>
      <trkpt lat="45.9108" lon="4.61">
        <ele>348</ele>
        <time>2019-06-28T20:25:10Z</time>
      </trkpt>
      <trkpt lat="45.91063" lon="4.61027">
        <ele>346</ele>
        <time>2019-06-28T20:25:16Z</time>
      </trkpt>
      <trkpt lat="45.91047" lon="4.61078">
        <ele>343</ele>
        <time>2019-06-28T20:25:25Z</time>
      </trkpt>
      <trkpt lat="45.91038" lon="4.61095">
        <ele>341</ele>
        <time>2019-06-28T20:25:29Z</time>
      </trkpt>
      <trkpt lat="45.90959" lon="4.61182">
        <ele>329</ele>
        <time>2019-06-28T20:25:52Z</time>
      </trkpt>
      <trkpt lat="45.90939" lon="4.61211">
        <ele>326</ele>
        <time>2019-06-28T20:25:58Z</time>
      </trkpt>
      <trkpt lat="45.90886" lon="4.6133">
        <ele>314</ele>
        <time>2019-06-28T20:26:21Z</time>
      </trkpt>
      <trkpt lat="45.90856" lon="4.61372">
        <ele>308</ele>
        <time>2019-06-28T20:26:31Z</time>
      </trkpt>
      <trkpt lat="45.90785" lon="4.61407">
        <ele>304</ele>
        <time>2019-06-28T20:26:49Z</time>
      </trkpt>
      <trkpt lat="45.90717" lon="4.61453">
        <ele>302</ele>
        <time>2019-06-28T20:27:06Z</time>
      </trkpt>
      <trkpt lat="45.90638" lon="4.61488">
        <ele>297</ele>
        <time>2019-06-28T20:27:26Z</time>
      </trkpt>
      <trkpt lat="45.90603" lon="4.61511">
        <ele>295</ele>
        <time>2019-06-28T20:27:35Z</time>
      </trkpt>
      <trkpt lat="45.9055" lon="4.61532">
        <ele>294</ele>
        <time>2019-06-28T20:27:47Z</time>
      </trkpt>
      <trkpt lat="45.9053" lon="4.61535">
        <ele>295</ele>
        <time>2019-06-28T20:27:52Z</time>
      </trkpt>
      <trkpt lat="45.90515" lon="4.61543">
        <ele>294</ele>
        <time>2019-06-28T20:27:56Z</time>
      </trkpt>
      <trkpt lat="45.90505" lon="4.61533">
        <ele>296</ele>
        <time>2019-06-28T20:27:59Z</time>
      </trkpt>
      <trkpt lat="45.90486" lon="4.61527">
        <ele>296</ele>
        <time>2019-06-28T20:28:03Z</time>
      </trkpt>
      <trkpt lat="45.90461" lon="4.61511">
        <ele>298</ele>
        <time>2019-06-28T20:28:10Z</time>
      </trkpt>
      <trkpt lat="45.90452" lon="4.61497">
        <ele>299</ele>
        <time>2019-06-28T20:28:13Z</time>
      </trkpt>
      <trkpt lat="45.90445" lon="4.61472">
        <ele>301</ele>
        <time>2019-06-28T20:28:17Z</time>
      </trkpt>
      <trkpt lat="45.90441" lon="4.61427">
        <ele>303</ele>
        <time>2019-06-28T20:28:24Z</time>
      </trkpt>
      <trkpt lat="45.90437" lon="4.61408">
        <ele>304</ele>
        <time>2019-06-28T20:28:28Z</time>
      </trkpt>
      <trkpt lat="45.90426" lon="4.61388">
        <ele>305</ele>
        <time>2019-06-28T20:28:32Z</time>
      </trkpt>
      <trkpt lat="45.90406" lon="4.61335">
        <ele>308</ele>
        <time>2019-06-28T20:28:42Z</time>
      </trkpt>
      <trkpt lat="45.90388" lon="4.61333">
        <ele>308</ele>
        <time>2019-06-28T20:28:46Z</time>
      </trkpt>
      <trkpt lat="45.90337" lon="4.61346">
        <ele>305</ele>
        <time>2019-06-28T20:28:58Z</time>
      </trkpt>
      <trkpt lat="45.90326" lon="4.61342">
        <ele>304</ele>
        <time>2019-06-28T20:29:01Z</time>
      </trkpt>
      <trkpt lat="45.90302" lon="4.61319">
        <ele>303</ele>
        <time>2019-06-28T20:29:07Z</time>
      </trkpt>
      <trkpt lat="45.90284" lon="4.6129">
        <ele>304</ele>
        <time>2019-06-28T20:29:14Z</time>
      </trkpt>
      <trkpt lat="45.90228" lon="4.61166">
        <ele>304</ele>
        <time>2019-06-28T20:29:38Z</time>
      </trkpt>
      <trkpt lat="45.90177" lon="4.61088">
        <ele>303</ele>
        <time>2019-06-28T20:29:55Z</time>
      </trkpt>
      <trkpt lat="45.90144" lon="4.61029">
        <ele>302</ele>
        <time>2019-06-28T20:30:07Z</time>
      </trkpt>
      <trkpt lat="45.90129" lon="4.60966">
        <ele>302</ele>
        <time>2019-06-28T20:30:18Z</time>
      </trkpt>
      <trkpt lat="45.9012" lon="4.60952">
        <ele>302</ele>
        <time>2019-06-28T20:30:21Z</time>
      </trkpt>
      <trkpt lat="45.90089" lon="4.60925">
        <ele>302</ele>
        <time>2019-06-28T20:30:30Z</time>
      </trkpt>
      <trkpt lat="45.90078" lon="4.60904">
        <ele>302</ele>
        <time>2019-06-28T20:30:34Z</time>
      </trkpt>
      <trkpt lat="45.90072" lon="4.60877">
        <ele>302</ele>
        <time>2019-06-28T20:30:39Z</time>
      </trkpt>
      <trkpt lat="45.9006" lon="4.60856">
        <ele>302</ele>
        <time>2019-06-28T20:30:43Z</time>
      </trkpt>
      <trkpt lat="45.90043" lon="4.60843">
        <ele>301</ele>
        <time>2019-06-28T20:30:48Z</time>
      </trkpt>
      <trkpt lat="45.90048" lon="4.60776">
        <ele>302</ele>
        <time>2019-06-28T20:30:58Z</time>
      </trkpt>
      <trkpt lat="45.90045" lon="4.60766">
        <ele>302</ele>
        <time>2019-06-28T20:31:00Z</time>
      </trkpt>
      <trkpt lat="45.90038" lon="4.60766">
        <ele>302</ele>
        <time>2019-06-28T20:31:02Z</time>
      </trkpt>
      <trkpt lat="45.90002" lon="4.6078">
        <ele>300</ele>
        <time>2019-06-28T20:31:11Z</time>
      </trkpt>
      <trkpt lat="45.89984" lon="4.60782">
        <ele>299</ele>
        <time>2019-06-28T20:31:15Z</time>
      </trkpt>
      <trkpt lat="45.89949" lon="4.6078">
        <ele>298</ele>
        <time>2019-06-28T20:31:23Z</time>
      </trkpt>
      <trkpt lat="45.89904" lon="4.60785">
        <ele>296</ele>
        <time>2019-06-28T20:31:34Z</time>
      </trkpt>
      <trkpt lat="45.8972" lon="4.60824">
        <ele>290</ele>
        <time>2019-06-28T20:32:17Z</time>
      </trkpt>
      <trkpt lat="45.89576" lon="4.60851">
        <ele>282</ele>
        <time>2019-06-28T20:32:51Z</time>
      </trkpt>
      <trkpt lat="45.89523" lon="4.6086">
        <ele>280</ele>
        <time>2019-06-28T20:33:03Z</time>
      </trkpt>
      <trkpt lat="45.89514" lon="4.60856">
        <ele>280</ele>
        <time>2019-06-28T20:33:06Z</time>
      </trkpt>
      <trkpt lat="45.89509" lon="4.60846">
        <ele>281</ele>
        <time>2019-06-28T20:33:08Z</time>
      </trkpt>
      <trkpt lat="45.89496" lon="4.60778">
        <ele>281</ele>
        <time>2019-06-28T20:33:19Z</time>
      </trkpt>
      <trkpt lat="45.89472" lon="4.6071">
        <ele>277</ele>
        <time>2019-06-28T20:33:31Z</time>
      </trkpt>
      <trkpt lat="45.89451" lon="4.60676">
        <ele>274</ele>
        <time>2019-06-28T20:33:39Z</time>
      </trkpt>
      <trkpt lat="45.89494" lon="4.60627">
        <ele>275</ele>
        <time>2019-06-28T20:33:52Z</time>
      </trkpt>
      <trkpt lat="45.89469" lon="4.60558">
        <ele>272</ele>
        <time>2019-06-28T20:34:04Z</time>
      </trkpt>
      <trkpt lat="45.89473" lon="4.6043">
        <ele>275</ele>
        <time>2019-06-28T20:34:25Z</time>
      </trkpt>
      <trkpt lat="45.89468" lon="4.60372">
        <ele>278</ele>
        <time>2019-06-28T20:34:35Z</time>
      </trkpt>
      <trkpt lat="45.89461" lon="4.60327">
        <ele>280</ele>
        <time>2019-06-28T20:34:42Z</time>
      </trkpt>
      <trkpt lat="45.89454" lon="4.60306">
        <ele>280</ele>
        <time>2019-06-28T20:34:46Z</time>
      </trkpt>
      <trkpt lat="45.89454" lon="4.603">
        <ele>280</ele>
        <time>2019-06-28T20:34:47Z</time>
      </trkpt>
      <trkpt lat="45.8946" lon="4.60298">
        <ele>280</ele>
        <time>2019-06-28T20:34:48Z</time>
      </trkpt>
      <trkpt lat="45.89478" lon="4.60299">
        <ele>281</ele>
        <time>2019-06-28T20:34:52Z</time>
      </trkpt>
      <trkpt lat="45.89529" lon="4.60306">
        <ele>284</ele>
        <time>2019-06-28T20:35:04Z</time>
      </trkpt>
      <trkpt lat="45.89549" lon="4.60304">
        <ele>285</ele>
        <time>2019-06-28T20:35:09Z</time>
      </trkpt>
      <trkpt lat="45.89594" lon="4.60292">
        <ele>289</ele>
        <time>2019-06-28T20:35:20Z</time>
      </trkpt>
      <trkpt lat="45.89675" lon="4.60275">
        <ele>294</ele>
        <time>2019-06-28T20:35:39Z</time>
      </trkpt>
      <trkpt lat="45.8968" lon="4.6027">
        <ele>295</ele>
        <time>2019-06-28T20:35:40Z</time>
      </trkpt>
      <trkpt lat="45.89675" lon="4.60084">
        <ele>299</ele>
        <time>2019-06-28T20:36:11Z</time>
      </trkpt>
      <trkpt lat="45.89692" lon="4.6002">
        <ele>301</ele>
        <time>2019-06-28T20:36:22Z</time>
      </trkpt>
      <trkpt lat="45.89716" lon="4.59949">
        <ele>303</ele>
        <time>2019-06-28T20:36:35Z</time>
      </trkpt>
      <trkpt lat="45.89724" lon="4.59943">
        <ele>305</ele>
        <time>2019-06-28T20:36:37Z</time>
      </trkpt>
      <trkpt lat="45.89771" lon="4.59925">
        <ele>312</ele>
        <time>2019-06-28T20:36:48Z</time>
      </trkpt>
      <trkpt lat="45.89776" lon="4.59919">
        <ele>312</ele>
        <time>2019-06-28T20:36:50Z</time>
      </trkpt>
      <trkpt lat="45.89788" lon="4.59885">
        <ele>310</ele>
        <time>2019-06-28T20:36:56Z</time>
      </trkpt>
      <trkpt lat="45.89804" lon="4.59866">
        <ele>309</ele>
        <time>2019-06-28T20:37:01Z</time>
      </trkpt>
      <trkpt lat="45.8982" lon="4.59856">
        <ele>310</ele>
        <time>2019-06-28T20:37:05Z</time>
      </trkpt>
      <trkpt lat="45.89867" lon="4.5984">
        <ele>311</ele>
        <time>2019-06-28T20:37:16Z</time>
      </trkpt>
      <trkpt lat="45.89922" lon="4.59799">
        <ele>310</ele>
        <time>2019-06-28T20:37:30Z</time>
      </trkpt>
      <trkpt lat="45.89936" lon="4.59783">
        <ele>308</ele>
        <time>2019-06-28T20:37:35Z</time>
      </trkpt>
      <trkpt lat="45.89927" lon="4.59761">
        <ele>305</ele>
        <time>2019-06-28T20:37:39Z</time>
      </trkpt>
      <trkpt lat="45.89884" lon="4.59685">
        <ele>298</ele>
        <time>2019-06-28T20:37:55Z</time>
      </trkpt>
      <trkpt lat="45.89874" lon="4.59657">
        <ele>296</ele>
        <time>2019-06-28T20:38:00Z</time>
      </trkpt>
      <trkpt lat="45.89868" lon="4.59652">
        <ele>295</ele>
        <time>2019-06-28T20:38:01Z</time>
      </trkpt>
      <trkpt lat="45.89858" lon="4.59654">
        <ele>295</ele>
        <time>2019-06-28T20:38:04Z</time>
      </trkpt>
      <trkpt lat="45.89849" lon="4.5965">
        <ele>294</ele>
        <time>2019-06-28T20:38:06Z</time>
      </trkpt>
      <trkpt lat="45.89831" lon="4.5963">
        <ele>291</ele>
        <time>2019-06-28T20:38:11Z</time>
      </trkpt>
      <trkpt lat="45.89833" lon="4.59592">
        <ele>289</ele>
        <time>2019-06-28T20:38:17Z</time>
      </trkpt>
      <trkpt lat="45.89831" lon="4.59569">
        <ele>287</ele>
        <time>2019-06-28T20:38:21Z</time>
      </trkpt>
      <trkpt lat="45.89862" lon="4.59501">
        <ele>284</ele>
        <time>2019-06-28T20:38:34Z</time>
      </trkpt>
      <trkpt lat="45.89766" lon="4.59403">
        <ele>273</ele>
        <time>2019-06-28T20:39:02Z</time>
      </trkpt>
      <trkpt lat="45.89749" lon="4.5939">
        <ele>270</ele>
        <time>2019-06-28T20:39:06Z</time>
      </trkpt>
      <trkpt lat="45.89726" lon="4.59387">
        <ele>265</ele>
        <time>2019-06-28T20:39:12Z</time>
      </trkpt>
      <trkpt lat="45.89706" lon="4.5939">
        <ele>261</ele>
        <time>2019-06-28T20:39:17Z</time>
      </trkpt>
      <trkpt lat="45.89664" lon="4.59435">
        <ele>258</ele>
        <time>2019-06-28T20:39:29Z</time>
      </trkpt>
      <trkpt lat="45.8963" lon="4.59424">
        <ele>249</ele>
        <time>2019-06-28T20:39:37Z</time>
      </trkpt>
      <trkpt lat="45.89613" lon="4.59429">
        <ele>247</ele>
        <time>2019-06-28T20:39:41Z</time>
      </trkpt>
      <trkpt lat="45.89587" lon="4.59452">
        <ele>244</ele>
        <time>2019-06-28T20:39:48Z</time>
      </trkpt>
      <trkpt lat="45.8958" lon="4.59465">
        <ele>244</ele>
        <time>2019-06-28T20:39:51Z</time>
      </trkpt>
      <trkpt lat="45.89576" lon="4.59466">
        <ele>244</ele>
        <time>2019-06-28T20:39:52Z</time>
      </trkpt>
      <trkpt lat="45.89575" lon="4.59462">
        <ele>243</ele>
        <time>2019-06-28T20:39:52Z</time>
      </trkpt>
      <trkpt lat="45.89588" lon="4.59439">
        <ele>243</ele>
        <time>2019-06-28T20:39:57Z</time>
      </trkpt>
      <trkpt lat="45.89573" lon="4.59417">
        <ele>238</ele>
        <time>2019-06-28T20:40:02Z</time>
      </trkpt>
      <trkpt lat="45.89583" lon="4.59395">
        <ele>238</ele>
        <time>2019-06-28T20:40:06Z</time>
      </trkpt>
      <trkpt lat="45.89621" lon="4.59275">
        <ele>236</ele>
        <time>2019-06-28T20:40:28Z</time>
      </trkpt>
      <trkpt lat="45.8964" lon="4.59196">
        <ele>234</ele>
        <time>2019-06-28T20:40:41Z</time>
      </trkpt>
      <trkpt lat="45.89657" lon="4.59137">
        <ele>233</ele>
        <time>2019-06-28T20:40:52Z</time>
      </trkpt>
      <trkpt lat="45.89654" lon="4.59133">
        <ele>233</ele>
        <time>2019-06-28T20:40:53Z</time>
      </trkpt>
      <trkpt lat="45.89646" lon="4.59131">
        <ele>233</ele>
        <time>2019-06-28T20:40:55Z</time>
      </trkpt>
      <trkpt lat="45.89639" lon="4.59135">
        <ele>233</ele>
        <time>2019-06-28T20:40:56Z</time>
      </trkpt>
      <trkpt lat="45.89625" lon="4.59151">
        <ele>233</ele>
        <time>2019-06-28T20:41:01Z</time>
      </trkpt>
      <trkpt lat="45.89617" lon="4.59149">
        <ele>233</ele>
        <time>2019-06-28T20:41:03Z</time>
      </trkpt>
      <trkpt lat="45.89592" lon="4.59126">
        <ele>233</ele>
        <time>2019-06-28T20:41:09Z</time>
      </trkpt>
      <trkpt lat="45.89555" lon="4.5913">
        <ele>233</ele>
        <time>2019-06-28T20:41:18Z</time>
      </trkpt>
      <trkpt lat="45.89533" lon="4.59113">
        <ele>233</ele>
        <time>2019-06-28T20:41:24Z</time>
      </trkpt>
      <trkpt lat="45.8952" lon="4.59095">
        <ele>233</ele>
        <time>2019-06-28T20:41:28Z</time>
      </trkpt>
      <trkpt lat="45.89495" lon="4.59039">
        <ele>233</ele>
        <time>2019-06-28T20:41:39Z</time>
      </trkpt>
      <trkpt lat="45.89436" lon="4.58881">
        <ele>236</ele>
        <time>2019-06-28T20:42:08Z</time>
      </trkpt>
      <trkpt lat="45.89431" lon="4.58859">
        <ele>238</ele>
        <time>2019-06-28T20:42:12Z</time>
      </trkpt>
      <trkpt lat="45.89425" lon="4.58849">
        <ele>239</ele>
        <time>2019-06-28T20:42:14Z</time>
      </trkpt>
      <trkpt lat="45.89415" lon="4.58847">
        <ele>240</ele>
        <time>2019-06-28T20:42:16Z</time>
      </trkpt>
      <trkpt lat="45.89376" lon="4.5886">
        <ele>242</ele>
        <time>2019-06-28T20:42:26Z</time>
      </trkpt>
      <trkpt lat="45.89365" lon="4.58866">
        <ele>243</ele>
        <time>2019-06-28T20:42:29Z</time>
      </trkpt>
      <trkpt lat="45.89362" lon="4.5887">
        <ele>243</ele>
        <time>2019-06-28T20:42:29Z</time>
      </trkpt>
      <trkpt lat="45.89353" lon="4.58863">
        <ele>244</ele>
        <time>2019-06-28T20:42:32Z</time>
      </trkpt>
      <trkpt lat="45.89344" lon="4.58832">
        <ele>246</ele>
        <time>2019-06-28T20:42:37Z</time>
      </trkpt>
      <trkpt lat="45.89303" lon="4.58783">
        <ele>253</ele>
        <time>2019-06-28T20:42:50Z</time>
      </trkpt>
      <trkpt lat="45.89293" lon="4.58774">
        <ele>255</ele>
        <time>2019-06-28T20:42:53Z</time>
      </trkpt>
      <trkpt lat="45.89284" lon="4.58772">
        <ele>257</ele>
        <time>2019-06-28T20:42:55Z</time>
      </trkpt>
      <trkpt lat="45.89273" lon="4.5875">
        <ele>260</ele>
        <time>2019-06-28T20:42:59Z</time>
      </trkpt>
      <trkpt lat="45.89267" lon="4.58745">
        <ele>260</ele>
        <time>2019-06-28T20:43:01Z</time>
      </trkpt>
      <trkpt lat="45.89259" lon="4.58747">
        <ele>262</ele>
        <time>2019-06-28T20:43:03Z</time>
      </trkpt>
      <trkpt lat="45.89241" lon="4.58762">
        <ele>265</ele>
        <time>2019-06-28T20:43:07Z</time>
      </trkpt>
      <trkpt lat="45.89222" lon="4.58774">
        <ele>267</ele>
        <time>2019-06-28T20:43:12Z</time>
      </trkpt>
      <trkpt lat="45.89197" lon="4.58772">
        <ele>270</ele>
        <time>2019-06-28T20:43:18Z</time>
      </trkpt>
      <trkpt lat="45.89151" lon="4.58744">
        <ele>277</ele>
        <time>2019-06-28T20:43:30Z</time>
      </trkpt>
      <trkpt lat="45.89132" lon="4.58727">
        <ele>278</ele>
        <time>2019-06-28T20:43:35Z</time>
      </trkpt>
      <trkpt lat="45.89097" lon="4.58703">
        <ele>280</ele>
        <time>2019-06-28T20:43:44Z</time>
      </trkpt>
      <trkpt lat="45.89059" lon="4.58685">
        <ele>282</ele>
        <time>2019-06-28T20:43:53Z</time>
      </trkpt>
      <trkpt lat="45.88937" lon="4.58619">
        <ele>283</ele>
        <time>2019-06-28T20:44:24Z</time>
      </trkpt>
      <trkpt lat="45.88899" lon="4.58602">
        <ele>284</ele>
        <time>2019-06-28T20:44:33Z</time>
      </trkpt>
      <trkpt lat="45.8887" lon="4.58585">
        <ele>285</ele>
        <time>2019-06-28T20:44:40Z</time>
      </trkpt>
      <trkpt lat="45.88784" lon="4.58559">
        <ele>286</ele>
        <time>2019-06-28T20:45:01Z</time>
      </trkpt>
      <trkpt lat="45.88726" lon="4.58538">
        <ele>287</ele>
        <time>2019-06-28T20:45:15Z</time>
      </trkpt>
      <trkpt lat="45.88721" lon="4.58537">
        <ele>287</ele>
        <time>2019-06-28T20:45:16Z</time>
      </trkpt>
      <trkpt lat="45.88717" lon="4.58542">
        <ele>287</ele>
        <time>2019-06-28T20:45:17Z</time>
      </trkpt>
      <trkpt lat="45.88693" lon="4.58614">
        <ele>286</ele>
        <time>2019-06-28T20:45:30Z</time>
      </trkpt>
      <trkpt lat="45.88679" lon="4.58625">
        <ele>287</ele>
        <time>2019-06-28T20:45:34Z</time>
      </trkpt>
      <trkpt lat="45.88616" lon="4.58661">
        <ele>288</ele>
        <time>2019-06-28T20:45:50Z</time>
      </trkpt>
      <trkpt lat="45.88534" lon="4.58628">
        <ele>296</ele>
        <time>2019-06-28T20:46:10Z</time>
      </trkpt>
      <trkpt lat="45.88525" lon="4.58577">
        <ele>300</ele>
        <time>2019-06-28T20:46:18Z</time>
      </trkpt>
      <trkpt lat="45.88495" lon="4.58566">
        <ele>305</ele>
        <time>2019-06-28T20:46:26Z</time>
      </trkpt>
      <trkpt lat="45.88476" lon="4.5854">
        <ele>309</ele>
        <time>2019-06-28T20:46:32Z</time>
      </trkpt>
      <trkpt lat="45.88442" lon="4.58511">
        <ele>315</ele>
        <time>2019-06-28T20:46:41Z</time>
      </trkpt>
      <trkpt lat="45.88422" lon="4.58499">
        <ele>317</ele>
        <time>2019-06-28T20:46:46Z</time>
      </trkpt>
      <trkpt lat="45.88401" lon="4.5847">
        <ele>321</ele>
        <time>2019-06-28T20:46:53Z</time>
      </trkpt>
      <trkpt lat="45.88381" lon="4.58462">
        <ele>325</ele>
        <time>2019-06-28T20:46:58Z</time>
      </trkpt>
      <trkpt lat="45.88338" lon="4.58437">
        <ele>335</ele>
        <time>2019-06-28T20:47:09Z</time>
      </trkpt>
      <trkpt lat="45.88309" lon="4.58427">
        <ele>338</ele>
        <time>2019-06-28T20:47:15Z</time>
      </trkpt>
      <trkpt lat="45.8827" lon="4.58407">
        <ele>341</ele>
        <time>2019-06-28T20:47:25Z</time>
      </trkpt>
      <trkpt lat="45.88247" lon="4.58404">
        <ele>342</ele>
        <time>2019-06-28T20:47:31Z</time>
      </trkpt>
      <trkpt lat="45.88216" lon="4.58406">
        <ele>345</ele>
        <time>2019-06-28T20:47:38Z</time>
      </trkpt>
      <trkpt lat="45.88173" lon="4.58419">
        <ele>350</ele>
        <time>2019-06-28T20:47:48Z</time>
      </trkpt>
      <trkpt lat="45.88156" lon="4.58416">
        <ele>352</ele>
        <time>2019-06-28T20:47:52Z</time>
      </trkpt>
      <trkpt lat="45.88075" lon="4.58378">
        <ele>363</ele>
        <time>2019-06-28T20:48:12Z</time>
      </trkpt>
      <trkpt lat="45.8797" lon="4.58336">
        <ele>375</ele>
        <time>2019-06-28T20:48:37Z</time>
      </trkpt>
      <trkpt lat="45.87933" lon="4.58315">
        <ele>379</ele>
        <time>2019-06-28T20:48:47Z</time>
      </trkpt>
      <trkpt lat="45.87894" lon="4.58311">
        <ele>381</ele>
        <time>2019-06-28T20:48:56Z</time>
      </trkpt>
      <trkpt lat="45.87856" lon="4.58315">
        <ele>382</ele>
        <time>2019-06-28T20:49:05Z</time>
      </trkpt>
      <trkpt lat="45.87823" lon="4.58322">
        <ele>383</ele>
        <time>2019-06-28T20:49:13Z</time>
      </trkpt>
      <trkpt lat="45.87803" lon="4.58316">
        <ele>384</ele>
        <time>2019-06-28T20:49:17Z</time>
      </trkpt>
      <trkpt lat="45.87754" lon="4.58284">
        <ele>383</ele>
        <time>2019-06-28T20:49:30Z</time>
      </trkpt>
      <trkpt lat="45.87675" lon="4.58244">
        <ele>387</ele>
        <time>2019-06-28T20:49:49Z</time>
      </trkpt>
      <trkpt lat="45.87635" lon="4.58213">
        <ele>390</ele>
        <time>2019-06-28T20:50:00Z</time>
      </trkpt>
      <trkpt lat="45.87597" lon="4.58208">
        <ele>395</ele>
        <time>2019-06-28T20:50:09Z</time>
      </trkpt>
      <trkpt lat="45.87559" lon="4.58199">
        <ele>399</ele>
        <time>2019-06-28T20:50:18Z</time>
      </trkpt>
      <trkpt lat="45.87523" lon="4.58185">
        <ele>402</ele>
        <time>2019-06-28T20:50:27Z</time>
      </trkpt>
      <trkpt lat="45.87496" lon="4.58158">
        <ele>403</ele>
        <time>2019-06-28T20:50:34Z</time>
      </trkpt>
      <trkpt lat="45.87448" lon="4.58118">
        <ele>405</ele>
        <time>2019-06-28T20:50:47Z</time>
      </trkpt>
      <trkpt lat="45.87363" lon="4.58069">
        <ele>405</ele>
        <time>2019-06-28T20:51:09Z</time>
      </trkpt>
      <trkpt lat="45.87319" lon="4.58047">
        <ele>404</ele>
        <time>2019-06-28T20:51:20Z</time>
      </trkpt>
      <trkpt lat="45.8724" lon="4.58015">
        <ele>404</ele>
        <time>2019-06-28T20:51:39Z</time>
      </trkpt>
      <trkpt lat="45.87179" lon="4.58003">
        <ele>403</ele>
        <time>2019-06-28T20:51:53Z</time>
      </trkpt>
      <trkpt lat="45.87154" lon="4.57974">
        <ele>400</ele>
        <time>2019-06-28T20:52:01Z</time>
      </trkpt>
      <trkpt lat="45.87065" lon="4.57923">
        <ele>394</ele>
        <time>2019-06-28T20:52:23Z</time>
      </trkpt>
      <trkpt lat="45.8703" lon="4.57917">
        <ele>392</ele>
        <time>2019-06-28T20:52:31Z</time>
      </trkpt>
      <trkpt lat="45.86942" lon="4.57813">
        <ele>376</ele>
        <time>2019-06-28T20:52:58Z</time>
      </trkpt>
      <trkpt lat="45.86937" lon="4.578">
        <ele>375</ele>
        <time>2019-06-28T20:53:00Z</time>
      </trkpt>
      <trkpt lat="45.86838" lon="4.57822">
        <ele>372</ele>
        <time>2019-06-28T20:53:24Z</time>
      </trkpt>
      <trkpt lat="45.86801" lon="4.57818">
        <ele>371</ele>
        <time>2019-06-28T20:53:32Z</time>
      </trkpt>
      <trkpt lat="45.86724" lon="4.57799">
        <ele>368</ele>
        <time>2019-06-28T20:53:51Z</time>
      </trkpt>
      <trkpt lat="45.86719" lon="4.5779">
        <ele>368</ele>
        <time>2019-06-28T20:53:52Z</time>
      </trkpt>
      <trkpt lat="45.86708" lon="4.57738">
        <ele>368</ele>
        <time>2019-06-28T20:54:01Z</time>
      </trkpt>
      <trkpt lat="45.86706" lon="4.57732">
        <ele>368</ele>
        <time>2019-06-28T20:54:02Z</time>
      </trkpt>
      <trkpt lat="45.86702" lon="4.57731">
        <ele>368</ele>
        <time>2019-06-28T20:54:03Z</time>
      </trkpt>
      <trkpt lat="45.86693" lon="4.57733">
        <ele>368</ele>
        <time>2019-06-28T20:54:05Z</time>
      </trkpt>
      <trkpt lat="45.86653" lon="4.5773">
        <ele>369</ele>
        <time>2019-06-28T20:54:15Z</time>
      </trkpt>
      <trkpt lat="45.86566" lon="4.57717">
        <ele>370</ele>
        <time>2019-06-28T20:54:35Z</time>
      </trkpt>
      <trkpt lat="45.86485" lon="4.57737">
        <ele>370</ele>
        <time>2019-06-28T20:54:54Z</time>
      </trkpt>
      <trkpt lat="45.86427" lon="4.57732">
        <ele>372</ele>
        <time>2019-06-28T20:55:08Z</time>
      </trkpt>
      <trkpt lat="45.86399" lon="4.57724">
        <ele>372</ele>
        <time>2019-06-28T20:55:15Z</time>
      </trkpt>
      <trkpt lat="45.86393" lon="4.5772">
        <ele>372</ele>
        <time>2019-06-28T20:55:16Z</time>
      </trkpt>
      <trkpt lat="45.86273" lon="4.57551">
        <ele>372</ele>
        <time>2019-06-28T20:55:55Z</time>
      </trkpt>
      <trkpt lat="45.86205" lon="4.57436">
        <ele>372</ele>
        <time>2019-06-28T20:56:20Z</time>
      </trkpt>
      <trkpt lat="45.86199" lon="4.57431">
        <ele>372</ele>
        <time>2019-06-28T20:56:22Z</time>
      </trkpt>
      <trkpt lat="45.86148" lon="4.57508">
        <ele>370</ele>
        <time>2019-06-28T20:56:39Z</time>
      </trkpt>
      <trkpt lat="45.86129" lon="4.57551">
        <ele>368</ele>
        <time>2019-06-28T20:56:47Z</time>
      </trkpt>
      <trkpt lat="45.86057" lon="4.57674">
        <ele>364</ele>
        <time>2019-06-28T20:57:13Z</time>
      </trkpt>
      <trkpt lat="45.86007" lon="4.57803">
        <ele>361</ele>
        <time>2019-06-28T20:57:37Z</time>
      </trkpt>
      <trkpt lat="45.85986" lon="4.57833">
        <ele>360</ele>
        <time>2019-06-28T20:57:44Z</time>
      </trkpt>
      <trkpt lat="45.85986" lon="4.57843">
        <ele>360</ele>
        <time>2019-06-28T20:57:46Z</time>
      </trkpt>
      <trkpt lat="45.85993" lon="4.57878">
        <ele>360</ele>
        <time>2019-06-28T20:57:52Z</time>
      </trkpt>
      <trkpt lat="45.86009" lon="4.58041">
        <ele>358</ele>
        <time>2019-06-28T20:58:19Z</time>
      </trkpt>
      <trkpt lat="45.86015" lon="4.58123">
        <ele>355</ele>
        <time>2019-06-28T20:58:32Z</time>
      </trkpt>
      <trkpt lat="45.86018" lon="4.5823">
        <ele>352</ele>
        <time>2019-06-28T20:58:49Z</time>
      </trkpt>
      <trkpt lat="45.86012" lon="4.58475">
        <ele>347</ele>
        <time>2019-06-28T20:59:29Z</time>
      </trkpt>
      <trkpt lat="45.86017" lon="4.58629">
        <ele>339</ele>
        <time>2019-06-28T20:59:54Z</time>
      </trkpt>
      <trkpt lat="45.86016" lon="4.58656">
        <ele>337</ele>
        <time>2019-06-28T20:59:59Z</time>
      </trkpt>
      <trkpt lat="45.86013" lon="4.58676">
        <ele>336</ele>
        <time>2019-06-28T21:00:02Z</time>
      </trkpt>
      <trkpt lat="45.8601" lon="4.58745">
        <ele>336</ele>
        <time>2019-06-28T21:00:13Z</time>
      </trkpt>
      <trkpt lat="45.85994" lon="4.58833">
        <ele>332</ele>
        <time>2019-06-28T21:00:28Z</time>
      </trkpt>
      <trkpt lat="45.85996" lon="4.58897">
        <ele>331</ele>
        <time>2019-06-28T21:00:38Z</time>
      </trkpt>
      <trkpt lat="45.85994" lon="4.58945">
        <ele>331</ele>
        <time>2019-06-28T21:00:46Z</time>
      </trkpt>
      <trkpt lat="45.85986" lon="4.58993">
        <ele>330</ele>
        <time>2019-06-28T21:00:54Z</time>
      </trkpt>
      <trkpt lat="45.85972" lon="4.59011">
        <ele>330</ele>
        <time>2019-06-28T21:00:59Z</time>
      </trkpt>
      <trkpt lat="45.85961" lon="4.59018">
        <ele>331</ele>
        <time>2019-06-28T21:01:02Z</time>
      </trkpt>
      <trkpt lat="45.85937" lon="4.59044">
        <ele>330</ele>
        <time>2019-06-28T21:01:09Z</time>
      </trkpt>
      <trkpt lat="45.85899" lon="4.59119">
        <ele>329</ele>
        <time>2019-06-28T21:01:24Z</time>
      </trkpt>
      <trkpt lat="45.8582" lon="4.59249">
        <ele>321</ele>
        <time>2019-06-28T21:01:52Z</time>
      </trkpt>
      <trkpt lat="45.85789" lon="4.59263">
        <ele>316</ele>
        <time>2019-06-28T21:01:59Z</time>
      </trkpt>
      <trkpt lat="45.85755" lon="4.59274">
        <ele>312</ele>
        <time>2019-06-28T21:02:07Z</time>
      </trkpt>
      <trkpt lat="45.85692" lon="4.59279">
        <ele>302</ele>
        <time>2019-06-28T21:02:22Z</time>
      </trkpt>
      <trkpt lat="45.85668" lon="4.5931">
        <ele>296</ele>
        <time>2019-06-28T21:02:30Z</time>
      </trkpt>
      <trkpt lat="45.85658" lon="4.59312">
        <ele>295</ele>
        <time>2019-06-28T21:02:32Z</time>
      </trkpt>
      <trkpt lat="45.85624" lon="4.5931">
        <ele>293</ele>
        <time>2019-06-28T21:02:40Z</time>
      </trkpt>
      <trkpt lat="45.85592" lon="4.59321">
        <ele>290</ele>
        <time>2019-06-28T21:02:48Z</time>
      </trkpt>
      <trkpt lat="45.85587" lon="4.59327">
        <ele>289</ele>
        <time>2019-06-28T21:02:49Z</time>
      </trkpt>
      <trkpt lat="45.85558" lon="4.59401">
        <ele>283</ele>
        <time>2019-06-28T21:03:03Z</time>
      </trkpt>
      <trkpt lat="45.85542" lon="4.59449">
        <ele>284</ele>
        <time>2019-06-28T21:03:12Z</time>
      </trkpt>
      <trkpt lat="45.85527" lon="4.59456">
        <ele>283</ele>
        <time>2019-06-28T21:03:15Z</time>
      </trkpt>
      <trkpt lat="45.85496" lon="4.59464">
        <ele>283</ele>
        <time>2019-06-28T21:03:23Z</time>
      </trkpt>
      <trkpt lat="45.85491" lon="4.59596">
        <ele>287</ele>
        <time>2019-06-28T21:03:44Z</time>
      </trkpt>
      <trkpt lat="45.85483" lon="4.59587">
        <ele>286</ele>
        <time>2019-06-28T21:03:47Z</time>
      </trkpt>
      <trkpt lat="45.85444" lon="4.59571">
        <ele>286</ele>
        <time>2019-06-28T21:03:56Z</time>
      </trkpt>
      <trkpt lat="45.85369" lon="4.59507">
        <ele>284</ele>
        <time>2019-06-28T21:04:16Z</time>
      </trkpt>
      <trkpt lat="45.85331" lon="4.59481">
        <ele>281</ele>
        <time>2019-06-28T21:04:26Z</time>
      </trkpt>
      <trkpt lat="45.85271" lon="4.59484">
        <ele>280</ele>
        <time>2019-06-28T21:04:40Z</time>
      </trkpt>
      <trkpt lat="45.85183" lon="4.5943">
        <ele>275</ele>
        <time>2019-06-28T21:05:03Z</time>
      </trkpt>
      <trkpt lat="45.85161" lon="4.59422">
        <ele>274</ele>
        <time>2019-06-28T21:05:08Z</time>
      </trkpt>
      <trkpt lat="45.85143" lon="4.5941">
        <ele>273</ele>
        <time>2019-06-28T21:05:13Z</time>
      </trkpt>
      <trkpt lat="45.85165" lon="4.59326">
        <ele>272</ele>
        <time>2019-06-28T21:05:27Z</time>
      </trkpt>
      <trkpt lat="45.85173" lon="4.59312">
        <ele>272</ele>
        <time>2019-06-28T21:05:30Z</time>
      </trkpt>
      <trkpt lat="45.85202" lon="4.59274">
        <ele>274</ele>
        <time>2019-06-28T21:05:39Z</time>
      </trkpt>
      <trkpt lat="45.85212" lon="4.59269">
        <ele>274</ele>
        <time>2019-06-28T21:05:42Z</time>
      </trkpt>
      <trkpt lat="45.85293" lon="4.59162">
        <ele>285</ele>
        <time>2019-06-28T21:06:07Z</time>
      </trkpt>
      <trkpt lat="45.85332" lon="4.5911">
        <ele>291</ele>
        <time>2019-06-28T21:06:20Z</time>
      </trkpt>
      <trkpt lat="45.85367" lon="4.59055">
        <ele>294</ele>
        <time>2019-06-28T21:06:32Z</time>
      </trkpt>
      <trkpt lat="45.85382" lon="4.59008">
        <ele>296</ele>
        <time>2019-06-28T21:06:40Z</time>
      </trkpt>
      <trkpt lat="45.85405" lon="4.58968">
        <ele>299</ele>
        <time>2019-06-28T21:06:49Z</time>
      </trkpt>
      <trkpt lat="45.85439" lon="4.58801">
        <ele>321</ele>
        <time>2019-06-28T21:07:17Z</time>
      </trkpt>
      <trkpt lat="45.85434" lon="4.58762">
        <ele>328</ele>
        <time>2019-06-28T21:07:24Z</time>
      </trkpt>
      <trkpt lat="45.85429" lon="4.58742">
        <ele>331</ele>
        <time>2019-06-28T21:07:27Z</time>
      </trkpt>
      <trkpt lat="45.85402" lon="4.58692">
        <ele>335</ele>
        <time>2019-06-28T21:07:37Z</time>
      </trkpt>
      <trkpt lat="45.85364" lon="4.58633">
        <ele>337</ele>
        <time>2019-06-28T21:07:50Z</time>
      </trkpt>
      <trkpt lat="45.85346" lon="4.58592">
        <ele>340</ele>
        <time>2019-06-28T21:07:58Z</time>
      </trkpt>
      <trkpt lat="45.85329" lon="4.5853">
        <ele>342</ele>
        <time>2019-06-28T21:08:09Z</time>
      </trkpt>
      <trkpt lat="45.85315" lon="4.58496">
        <ele>343</ele>
        <time>2019-06-28T21:08:16Z</time>
      </trkpt>
      <trkpt lat="45.85287" lon="4.58434">
        <ele>344</ele>
        <time>2019-06-28T21:08:28Z</time>
      </trkpt>
      <trkpt lat="45.85268" lon="4.58406">
        <ele>344</ele>
        <time>2019-06-28T21:08:34Z</time>
      </trkpt>
      <trkpt lat="45.85265" lon="4.58384">
        <ele>344</ele>
        <time>2019-06-28T21:08:38Z</time>
      </trkpt>
      <trkpt lat="45.85262" lon="4.58316">
        <ele>345</ele>
        <time>2019-06-28T21:08:49Z</time>
      </trkpt>
      <trkpt lat="45.85246" lon="4.58303">
        <ele>344</ele>
        <time>2019-06-28T21:08:53Z</time>
      </trkpt>
      <trkpt lat="45.85269" lon="4.58182">
        <ele>346</ele>
        <time>2019-06-28T21:09:13Z</time>
      </trkpt>
      <trkpt lat="45.85177" lon="4.58161">
        <ele>336</ele>
        <time>2019-06-28T21:09:35Z</time>
      </trkpt>
      <trkpt lat="45.8515" lon="4.58152">
        <ele>335</ele>
        <time>2019-06-28T21:09:42Z</time>
      </trkpt>
      <trkpt lat="45.85115" lon="4.58151">
        <ele>333</ele>
        <time>2019-06-28T21:09:50Z</time>
      </trkpt>
      <trkpt lat="45.85096" lon="4.58153">
        <ele>333</ele>
        <time>2019-06-28T21:09:54Z</time>
      </trkpt>
      <trkpt lat="45.85069" lon="4.58161">
        <ele>332</ele>
        <time>2019-06-28T21:10:01Z</time>
      </trkpt>
      <trkpt lat="45.85035" lon="4.58173">
        <ele>330</ele>
        <time>2019-06-28T21:10:09Z</time>
      </trkpt>
      <trkpt lat="45.85004" lon="4.58189">
        <ele>329</ele>
        <time>2019-06-28T21:10:16Z</time>
      </trkpt>
      <trkpt lat="45.84997" lon="4.58202">
        <ele>329</ele>
        <time>2019-06-28T21:10:19Z</time>
      </trkpt>
      <trkpt lat="45.84995" lon="4.58214">
        <ele>329</ele>
        <time>2019-06-28T21:10:21Z</time>
      </trkpt>
      <trkpt lat="45.8501" lon="4.58238">
        <ele>330</ele>
        <time>2019-06-28T21:10:26Z</time>
      </trkpt>
      <trkpt lat="45.84991" lon="4.58271">
        <ele>327</ele>
        <time>2019-06-28T21:10:33Z</time>
      </trkpt>
      <trkpt lat="45.84974" lon="4.58341">
        <ele>320</ele>
        <time>2019-06-28T21:10:45Z</time>
      </trkpt>
      <trkpt lat="45.84968" lon="4.58357">
        <ele>317</ele>
        <time>2019-06-28T21:10:48Z</time>
      </trkpt>
      <trkpt lat="45.84959" lon="4.5837">
        <ele>315</ele>
        <time>2019-06-28T21:10:51Z</time>
      </trkpt>
      <trkpt lat="45.84918" lon="4.58385">
        <ele>311</ele>
        <time>2019-06-28T21:11:01Z</time>
      </trkpt>
      <trkpt lat="45.84908" lon="4.58391">
        <ele>309</ele>
        <time>2019-06-28T21:11:04Z</time>
      </trkpt>
      <trkpt lat="45.84873" lon="4.58466">
        <ele>297</ele>
        <time>2019-06-28T21:11:18Z</time>
      </trkpt>
      <trkpt lat="45.84861" lon="4.5848">
        <ele>294</ele>
        <time>2019-06-28T21:11:22Z</time>
      </trkpt>
      <trkpt lat="45.84825" lon="4.58511">
        <ele>288</ele>
        <time>2019-06-28T21:11:32Z</time>
      </trkpt>
      <trkpt lat="45.848" lon="4.58548">
        <ele>283</ele>
        <time>2019-06-28T21:11:40Z</time>
      </trkpt>
      <trkpt lat="45.84762" lon="4.58591">
        <ele>277</ele>
        <time>2019-06-28T21:11:52Z</time>
      </trkpt>
      <trkpt lat="45.84716" lon="4.58629">
        <ele>275</ele>
        <time>2019-06-28T21:12:04Z</time>
      </trkpt>
      <trkpt lat="45.8469" lon="4.58657">
        <ele>273</ele>
        <time>2019-06-28T21:12:12Z</time>
      </trkpt>
      <trkpt lat="45.84616" lon="4.58777">
        <ele>264</ele>
        <time>2019-06-28T21:12:38Z</time>
      </trkpt>
      <trkpt lat="45.84603" lon="4.58764">
        <ele>264</ele>
        <time>2019-06-28T21:12:41Z</time>
      </trkpt>
      <trkpt lat="45.84584" lon="4.58726">
        <ele>265</ele>
        <time>2019-06-28T21:12:49Z</time>
      </trkpt>
      <trkpt lat="45.84569" lon="4.58723">
        <ele>265</ele>
        <time>2019-06-28T21:12:52Z</time>
      </trkpt>
      <trkpt lat="45.8446" lon="4.58758">
        <ele>260</ele>
        <time>2019-06-28T21:13:19Z</time>
      </trkpt>
      <trkpt lat="45.84411" lon="4.58656">
        <ele>255</ele>
        <time>2019-06-28T21:13:39Z</time>
      </trkpt>
      <trkpt lat="45.84384" lon="4.58609">
        <ele>253</ele>
        <time>2019-06-28T21:13:49Z</time>
      </trkpt>
      <trkpt lat="45.84368" lon="4.58601">
        <ele>251</ele>
        <time>2019-06-28T21:13:53Z</time>
      </trkpt>
      <trkpt lat="45.84349" lon="4.58602">
        <ele>248</ele>
        <time>2019-06-28T21:13:57Z</time>
      </trkpt>
      <trkpt lat="45.84332" lon="4.5861">
        <ele>246</ele>
        <time>2019-06-28T21:14:01Z</time>
      </trkpt>
      <trkpt lat="45.8432" lon="4.58632">
        <ele>244</ele>
        <time>2019-06-28T21:14:06Z</time>
      </trkpt>
      <trkpt lat="45.84305" lon="4.58596">
        <ele>244</ele>
        <time>2019-06-28T21:14:13Z</time>
      </trkpt>
      <trkpt lat="45.8429" lon="4.58576">
        <ele>243</ele>
        <time>2019-06-28T21:14:17Z</time>
      </trkpt>
      <trkpt lat="45.84192" lon="4.58597">
        <ele>238</ele>
        <time>2019-06-28T21:14:40Z</time>
      </trkpt>
      <trkpt lat="45.84165" lon="4.58612">
        <ele>238</ele>
        <time>2019-06-28T21:14:47Z</time>
      </trkpt>
      <trkpt lat="45.84148" lon="4.58599">
        <ele>239</ele>
        <time>2019-06-28T21:14:52Z</time>
      </trkpt>
      <trkpt lat="45.84099" lon="4.58611">
        <ele>242</ele>
        <time>2019-06-28T21:15:03Z</time>
      </trkpt>
      <trkpt lat="45.84064" lon="4.58649">
        <ele>246</ele>
        <time>2019-06-28T21:15:14Z</time>
      </trkpt>
      <trkpt lat="45.84037" lon="4.58664">
        <ele>252</ele>
        <time>2019-06-28T21:15:20Z</time>
      </trkpt>
      <trkpt lat="45.83979" lon="4.58652">
        <ele>260</ele>
        <time>2019-06-28T21:15:34Z</time>
      </trkpt>
      <trkpt lat="45.83952" lon="4.58642">
        <ele>260</ele>
        <time>2019-06-28T21:15:41Z</time>
      </trkpt>
      <trkpt lat="45.83906" lon="4.58614">
        <ele>261</ele>
        <time>2019-06-28T21:15:52Z</time>
      </trkpt>
      <trkpt lat="45.83866" lon="4.58577">
        <ele>265</ele>
        <time>2019-06-28T21:16:03Z</time>
      </trkpt>
      <trkpt lat="45.83822" lon="4.58553">
        <ele>269</ele>
        <time>2019-06-28T21:16:14Z</time>
      </trkpt>
      <trkpt lat="45.83776" lon="4.58552">
        <ele>273</ele>
        <time>2019-06-28T21:16:25Z</time>
      </trkpt>
      <trkpt lat="45.83781" lon="4.58599">
        <ele>277</ele>
        <time>2019-06-28T21:16:33Z</time>
      </trkpt>
      <trkpt lat="45.83778" lon="4.58696">
        <ele>281</ele>
        <time>2019-06-28T21:16:49Z</time>
      </trkpt>
      <trkpt lat="45.83778" lon="4.5876">
        <ele>282</ele>
        <time>2019-06-28T21:16:59Z</time>
      </trkpt>
      <trkpt lat="45.83781" lon="4.58819">
        <ele>283</ele>
        <time>2019-06-28T21:17:09Z</time>
      </trkpt>
      <trkpt lat="45.8374" lon="4.58821">
        <ele>285</ele>
        <time>2019-06-28T21:17:18Z</time>
      </trkpt>
      <trkpt lat="45.8372" lon="4.58825">
        <ele>287</ele>
        <time>2019-06-28T21:17:23Z</time>
      </trkpt>
      <trkpt lat="45.83698" lon="4.58824">
        <ele>288</ele>
        <time>2019-06-28T21:17:28Z</time>
      </trkpt>
      <trkpt lat="45.8367" lon="4.58814">
        <ele>289</ele>
        <time>2019-06-28T21:17:35Z</time>
      </trkpt>
      <trkpt lat="45.83598" lon="4.58818">
        <ele>292</ele>
        <time>2019-06-28T21:17:52Z</time>
      </trkpt>
      <trkpt lat="45.83562" lon="4.58808">
        <ele>294</ele>
        <time>2019-06-28T21:18:00Z</time>
      </trkpt>
      <trkpt lat="45.8353" lon="4.58805">
        <ele>296</ele>
        <time>2019-06-28T21:18:08Z</time>
      </trkpt>
      <trkpt lat="45.83497" lon="4.58798">
        <ele>297</ele>
        <time>2019-06-28T21:18:16Z</time>
      </trkpt>
      <trkpt lat="45.83495" lon="4.58816">
        <ele>298</ele>
        <time>2019-06-28T21:18:18Z</time>
      </trkpt>
      <trkpt lat="45.83515" lon="4.59002">
        <ele>298</ele>
        <time>2019-06-28T21:18:49Z</time>
      </trkpt>
      <trkpt lat="45.83439" lon="4.59167">
        <ele>291</ele>
        <time>2019-06-28T21:19:21Z</time>
      </trkpt>
      <trkpt lat="45.83307" lon="4.59433">
        <ele>292</ele>
        <time>2019-06-28T21:20:14Z</time>
      </trkpt>
      <trkpt lat="45.8329" lon="4.59473">
        <ele>292</ele>
        <time>2019-06-28T21:20:22Z</time>
      </trkpt>
      <trkpt lat="45.83236" lon="4.59509">
        <ele>292</ele>
        <time>2019-06-28T21:20:36Z</time>
      </trkpt>
      <trkpt lat="45.83137" lon="4.59538">
        <ele>282</ele>
        <time>2019-06-28T21:21:00Z</time>
      </trkpt>
      <trkpt lat="45.82976" lon="4.59528">
        <ele>267</ele>
        <time>2019-06-28T21:21:37Z</time>
      </trkpt>
      <trkpt lat="45.82951" lon="4.5954">
        <ele>267</ele>
        <time>2019-06-28T21:21:43Z</time>
      </trkpt>
      <trkpt lat="45.82933" lon="4.59557">
        <ele>268</ele>
        <time>2019-06-28T21:21:48Z</time>
      </trkpt>
      <trkpt lat="45.8292" lon="4.59471">
        <ele>269</ele>
        <time>2019-06-28T21:22:03Z</time>
      </trkpt>
      <trkpt lat="45.82903" lon="4.59188">
        <ele>292</ele>
        <time>2019-06-28T21:22:49Z</time>
      </trkpt>
      <trkpt lat="45.8287" lon="4.58961">
        <ele>298</ele>
        <time>2019-06-28T21:23:27Z</time>
      </trkpt>
      <trkpt lat="45.82859" lon="4.5875">
        <ele>298</ele>
        <time>2019-06-28T21:24:01Z</time>
      </trkpt>
      <trkpt lat="45.82836" lon="4.58407">
        <ele>302</ele>
        <time>2019-06-28T21:24:57Z</time>
      </trkpt>
      <trkpt lat="45.82792" lon="4.58362">
        <ele>300</ele>
        <time>2019-06-28T21:25:10Z</time>
      </trkpt>
      <trkpt lat="45.82747" lon="4.58311">
        <ele>299</ele>
        <time>2019-06-28T21:25:23Z</time>
      </trkpt>
      <trkpt lat="45.82666" lon="4.58025">
        <ele>308</ele>
        <time>2019-06-28T21:26:13Z</time>
      </trkpt>
      <trkpt lat="45.82664" lon="4.57957">
        <ele>310</ele>
        <time>2019-06-28T21:26:24Z</time>
      </trkpt>
      <trkpt lat="45.82668" lon="4.57807">
        <ele>314</ele>
        <time>2019-06-28T21:26:49Z</time>
      </trkpt>
      <trkpt lat="45.82676" lon="4.57722">
        <ele>314</ele>
        <time>2019-06-28T21:27:03Z</time>
      </trkpt>
      <trkpt lat="45.82684" lon="4.57673">
        <ele>315</ele>
        <time>2019-06-28T21:27:11Z</time>
      </trkpt>
      <trkpt lat="45.82689" lon="4.57582">
        <ele>317</ele>
        <time>2019-06-28T21:27:26Z</time>
      </trkpt>
      <trkpt lat="45.82687" lon="4.57516">
        <ele>320</ele>
        <time>2019-06-28T21:27:37Z</time>
      </trkpt>
      <trkpt lat="45.8269" lon="4.5741">
        <ele>326</ele>
        <time>2019-06-28T21:27:54Z</time>
      </trkpt>
      <trkpt lat="45.82686" lon="4.57273">
        <ele>338</ele>
        <time>2019-06-28T21:28:16Z</time>
      </trkpt>
      <trkpt lat="45.82656" lon="4.57141">
        <ele>347</ele>
        <time>2019-06-28T21:28:39Z</time>
      </trkpt>
      <trkpt lat="45.82651" lon="4.57091">
        <ele>348</ele>
        <time>2019-06-28T21:28:47Z</time>
      </trkpt>
      <trkpt lat="45.82642" lon="4.56936">
        <ele>354</ele>
        <time>2019-06-28T21:29:12Z</time>
      </trkpt>
      <trkpt lat="45.82654" lon="4.56814">
        <ele>364</ele>
        <time>2019-06-28T21:29:32Z</time>
      </trkpt>
      <trkpt lat="45.8267" lon="4.5674">
        <ele>371</ele>
        <time>2019-06-28T21:29:45Z</time>
      </trkpt>
      <trkpt lat="45.8269" lon="4.56697">
        <ele>377</ele>
        <time>2019-06-28T21:29:53Z</time>
      </trkpt>
      <trkpt lat="45.82722" lon="4.56659">
        <ele>385</ele>
        <time>2019-06-28T21:30:03Z</time>
      </trkpt>
      <trkpt lat="45.82741" lon="4.56643">
        <ele>390</ele>
        <time>2019-06-28T21:30:08Z</time>
      </trkpt>
      <trkpt lat="45.82784" lon="4.56643">
        <ele>397</ele>
        <time>2019-06-28T21:30:18Z</time>
      </trkpt>
      <trkpt lat="45.82815" lon="4.56651">
        <ele>402</ele>
        <time>2019-06-28T21:30:26Z</time>
      </trkpt>
      <trkpt lat="45.82882" lon="4.56663">
        <ele>410</ele>
        <time>2019-06-28T21:30:41Z</time>
      </trkpt>
      <trkpt lat="45.82931" lon="4.56664">
        <ele>416</ele>
        <time>2019-06-28T21:30:53Z</time>
      </trkpt>
      <trkpt lat="45.82987" lon="4.5665">
        <ele>424</ele>
        <time>2019-06-28T21:31:06Z</time>
      </trkpt>
      <trkpt lat="45.83044" lon="4.56606">
        <ele>434</ele>
        <time>2019-06-28T21:31:21Z</time>
      </trkpt>
      <trkpt lat="45.83061" lon="4.56584">
        <ele>438</ele>
        <time>2019-06-28T21:31:27Z</time>
      </trkpt>
      <trkpt lat="45.83095" lon="4.56504">
        <ele>447</ele>
        <time>2019-06-28T21:31:42Z</time>
      </trkpt>
      <trkpt lat="45.83104" lon="4.5643">
        <ele>448</ele>
        <time>2019-06-28T21:31:54Z</time>
      </trkpt>
      <trkpt lat="45.83103" lon="4.56362">
        <ele>453</ele>
        <time>2019-06-28T21:32:05Z</time>
      </trkpt>
      <trkpt lat="45.83111" lon="4.56329">
        <ele>455</ele>
        <time>2019-06-28T21:32:11Z</time>
      </trkpt>
      <trkpt lat="45.83133" lon="4.56287">
        <ele>459</ele>
        <time>2019-06-28T21:32:19Z</time>
      </trkpt>
      <trkpt lat="45.8317" lon="4.56241">
        <ele>463</ele>
        <time>2019-06-28T21:32:31Z</time>
      </trkpt>
      <trkpt lat="45.83189" lon="4.56226">
        <ele>462</ele>
        <time>2019-06-28T21:32:36Z</time>
      </trkpt>
      <trkpt lat="45.83215" lon="4.56194">
        <ele>462</ele>
        <time>2019-06-28T21:32:44Z</time>
      </trkpt>
      <trkpt lat="45.83256" lon="4.56121">
        <ele>459</ele>
        <time>2019-06-28T21:32:59Z</time>
      </trkpt>
      <trkpt lat="45.83259" lon="4.56096">
        <ele>459</ele>
        <time>2019-06-28T21:33:03Z</time>
      </trkpt>
      <trkpt lat="45.83255" lon="4.56067">
        <ele>459</ele>
        <time>2019-06-28T21:33:08Z</time>
      </trkpt>
      <trkpt lat="45.83226" lon="4.55979">
        <ele>463</ele>
        <time>2019-06-28T21:33:24Z</time>
      </trkpt>
      <trkpt lat="45.83202" lon="4.55873">
        <ele>457</ele>
        <time>2019-06-28T21:33:42Z</time>
      </trkpt>
      <trkpt lat="45.83168" lon="4.55776">
        <ele>452</ele>
        <time>2019-06-28T21:34:00Z</time>
      </trkpt>
      <trkpt lat="45.8316" lon="4.5572">
        <ele>450</ele>
        <time>2019-06-28T21:34:09Z</time>
      </trkpt>
      <trkpt lat="45.83147" lon="4.55661">
        <ele>450</ele>
        <time>2019-06-28T21:34:19Z</time>
      </trkpt>
      <trkpt lat="45.83134" lon="4.55621">
        <ele>451</ele>
        <time>2019-06-28T21:34:26Z</time>
      </trkpt>
      <trkpt lat="45.83092" lon="4.55527">
        <ele>455</ele>
        <time>2019-06-28T21:34:44Z</time>
      </trkpt>
      <trkpt lat="45.83072" lon="4.55455">
        <ele>454</ele>
        <time>2019-06-28T21:34:57Z</time>
      </trkpt>
      <trkpt lat="45.83052" lon="4.55293">
        <ele>453</ele>
        <time>2019-06-28T21:35:24Z</time>
      </trkpt>
      <trkpt lat="45.83044" lon="4.55288">
        <ele>453</ele>
        <time>2019-06-28T21:35:26Z</time>
      </trkpt>
      <trkpt lat="45.8303" lon="4.55292">
        <ele>454</ele>
        <time>2019-06-28T21:35:29Z</time>
      </trkpt>
      <trkpt lat="45.83017" lon="4.55305">
        <ele>456</ele>
        <time>2019-06-28T21:35:33Z</time>
      </trkpt>
      <trkpt lat="45.82942" lon="4.55344">
        <ele>461</ele>
        <time>2019-06-28T21:35:52Z</time>
      </trkpt>
      <trkpt lat="45.82881" lon="4.55396">
        <ele>466</ele>
        <time>2019-06-28T21:36:08Z</time>
      </trkpt>
      <trkpt lat="45.82798" lon="4.55493">
        <ele>468</ele>
        <time>2019-06-28T21:36:33Z</time>
      </trkpt>
      <trkpt lat="45.8272" lon="4.55567">
        <ele>470</ele>
        <time>2019-06-28T21:36:55Z</time>
      </trkpt>
      <trkpt lat="45.82697" lon="4.55585">
        <ele>472</ele>
        <time>2019-06-28T21:37:01Z</time>
      </trkpt>
      <trkpt lat="45.82664" lon="4.55622">
        <ele>474</ele>
        <time>2019-06-28T21:37:11Z</time>
      </trkpt>
      <trkpt lat="45.82607" lon="4.55749">
        <ele>476</ele>
        <time>2019-06-28T21:37:35Z</time>
      </trkpt>
      <trkpt lat="45.82551" lon="4.55862">
        <ele>472</ele>
        <time>2019-06-28T21:37:58Z</time>
      </trkpt>
      <trkpt lat="45.82503" lon="4.55922">
        <ele>473</ele>
        <time>2019-06-28T21:38:13Z</time>
      </trkpt>
      <trkpt lat="45.82476" lon="4.55948">
        <ele>471</ele>
        <time>2019-06-28T21:38:20Z</time>
      </trkpt>
      <trkpt lat="45.82446" lon="4.55968">
        <ele>470</ele>
        <time>2019-06-28T21:38:28Z</time>
      </trkpt>
      <trkpt lat="45.82397" lon="4.56029">
        <ele>464</ele>
        <time>2019-06-28T21:38:43Z</time>
      </trkpt>
      <trkpt lat="45.82366" lon="4.56058">
        <ele>461</ele>
        <time>2019-06-28T21:38:52Z</time>
      </trkpt>
      <trkpt lat="45.82351" lon="4.56093">
        <ele>456</ele>
        <time>2019-06-28T21:38:59Z</time>
      </trkpt>
      <trkpt lat="45.82281" lon="4.56157">
        <ele>445</ele>
        <time>2019-06-28T21:39:18Z</time>
      </trkpt>
      <trkpt lat="45.82168" lon="4.56017">
        <ele>449</ele>
        <time>2019-06-28T21:39:53Z</time>
      </trkpt>
      <trkpt lat="45.82055" lon="4.55892">
        <ele>442</ele>
        <time>2019-06-28T21:40:26Z</time>
      </trkpt>
      <trkpt lat="45.82039" lon="4.55878">
        <ele>440</ele>
        <time>2019-06-28T21:40:31Z</time>
      </trkpt>
      <trkpt lat="45.8203" lon="4.55882">
        <ele>437</ele>
        <time>2019-06-28T21:40:33Z</time>
      </trkpt>
      <trkpt lat="45.82004" lon="4.55913">
        <ele>428</ele>
        <time>2019-06-28T21:40:41Z</time>
      </trkpt>
      <trkpt lat="45.81998" lon="4.55914">
        <ele>427</ele>
        <time>2019-06-28T21:40:42Z</time>
      </trkpt>
      <trkpt lat="45.81922" lon="4.55887">
        <ele>413</ele>
        <time>2019-06-28T21:41:00Z</time>
      </trkpt>
      <trkpt lat="45.81904" lon="4.55931">
        <ele>408</ele>
        <time>2019-06-28T21:41:09Z</time>
      </trkpt>
      <trkpt lat="45.81888" lon="4.56046">
        <ele>400</ele>
        <time>2019-06-28T21:41:28Z</time>
      </trkpt>
      <trkpt lat="45.81854" lon="4.56081">
        <ele>392</ele>
        <time>2019-06-28T21:41:38Z</time>
      </trkpt>
      <trkpt lat="45.81822" lon="4.56123">
        <ele>385</ele>
        <time>2019-06-28T21:41:48Z</time>
      </trkpt>
      <trkpt lat="45.81785" lon="4.56185">
        <ele>376</ele>
        <time>2019-06-28T21:42:01Z</time>
      </trkpt>
      <trkpt lat="45.81774" lon="4.56189">
        <ele>375</ele>
        <time>2019-06-28T21:42:04Z</time>
      </trkpt>
      <trkpt lat="45.81783" lon="4.56119">
        <ele>379</ele>
        <time>2019-06-28T21:42:15Z</time>
      </trkpt>
      <trkpt lat="45.81786" lon="4.56075">
        <ele>383</ele>
        <time>2019-06-28T21:42:22Z</time>
      </trkpt>
      <trkpt lat="45.81776" lon="4.55995">
        <ele>384</ele>
        <time>2019-06-28T21:42:36Z</time>
      </trkpt>
      <trkpt lat="45.81787" lon="4.55938">
        <ele>383</ele>
        <time>2019-06-28T21:42:45Z</time>
      </trkpt>
      <trkpt lat="45.81831" lon="4.55797">
        <ele>388</ele>
        <time>2019-06-28T21:43:10Z</time>
      </trkpt>
      <trkpt lat="45.81832" lon="4.557">
        <ele>391</ele>
        <time>2019-06-28T21:43:26Z</time>
      </trkpt>
      <trkpt lat="45.81824" lon="4.55685">
        <ele>393</ele>
        <time>2019-06-28T21:43:29Z</time>
      </trkpt>
      <trkpt lat="45.81712" lon="4.55694">
        <ele>391</ele>
        <time>2019-06-28T21:43:55Z</time>
      </trkpt>
      <trkpt lat="45.81705" lon="4.55685">
        <ele>392</ele>
        <time>2019-06-28T21:43:58Z</time>
      </trkpt>
      <trkpt lat="45.81674" lon="4.55705">
        <ele>387</ele>
        <time>2019-06-28T21:44:06Z</time>
      </trkpt>
      <trkpt lat="45.81645" lon="4.55704">
        <ele>382</ele>
        <time>2019-06-28T21:44:12Z</time>
      </trkpt>
      <trkpt lat="45.81607" lon="4.55655">
        <ele>378</ele>
        <time>2019-06-28T21:44:24Z</time>
      </trkpt>
      <trkpt lat="45.81598" lon="4.55618">
        <ele>374</ele>
        <time>2019-06-28T21:44:31Z</time>
      </trkpt>
      <trkpt lat="45.81601" lon="4.55576">
        <ele>374</ele>
        <time>2019-06-28T21:44:38Z</time>
      </trkpt>
      <trkpt lat="45.81607" lon="4.55536">
        <ele>376</ele>
        <time>2019-06-28T21:44:44Z</time>
      </trkpt>
      <trkpt lat="45.81606" lon="4.555">
        <ele>377</ele>
        <time>2019-06-28T21:44:50Z</time>
      </trkpt>
      <trkpt lat="45.81577" lon="4.55458">
        <ele>370</ele>
        <time>2019-06-28T21:45:00Z</time>
      </trkpt>
      <trkpt lat="45.81573" lon="4.55432">
        <ele>370</ele>
        <time>2019-06-28T21:45:04Z</time>
      </trkpt>
      <trkpt lat="45.81583" lon="4.55391">
        <ele>374</ele>
        <time>2019-06-28T21:45:11Z</time>
      </trkpt>
      <trkpt lat="45.81594" lon="4.55367">
        <ele>378</ele>
        <time>2019-06-28T21:45:16Z</time>
      </trkpt>
      <trkpt lat="45.81607" lon="4.5535">
        <ele>382</ele>
        <time>2019-06-28T21:45:20Z</time>
      </trkpt>
      <trkpt lat="45.81624" lon="4.55288">
        <ele>385</ele>
        <time>2019-06-28T21:45:31Z</time>
      </trkpt>
      <trkpt lat="45.81637" lon="4.55175">
        <ele>382</ele>
        <time>2019-06-28T21:45:49Z</time>
      </trkpt>
      <trkpt lat="45.81644" lon="4.55084">
        <ele>381</ele>
        <time>2019-06-28T21:46:04Z</time>
      </trkpt>
      <trkpt lat="45.81642" lon="4.55049">
        <ele>379</ele>
        <time>2019-06-28T21:46:10Z</time>
      </trkpt>
      <trkpt lat="45.81629" lon="4.5499">
        <ele>372</ele>
        <time>2019-06-28T21:46:20Z</time>
      </trkpt>
      <trkpt lat="45.81628" lon="4.54972">
        <ele>371</ele>
        <time>2019-06-28T21:46:23Z</time>
      </trkpt>
      <trkpt lat="45.81634" lon="4.54944">
        <ele>371</ele>
        <time>2019-06-28T21:46:28Z</time>
      </trkpt>
      <trkpt lat="45.8163" lon="4.54939">
        <ele>369</ele>
        <time>2019-06-28T21:46:29Z</time>
      </trkpt>
      <trkpt lat="45.81621" lon="4.54949">
        <ele>368</ele>
        <time>2019-06-28T21:46:32Z</time>
      </trkpt>
      <trkpt lat="45.81613" lon="4.54984">
        <ele>367</ele>
        <time>2019-06-28T21:46:38Z</time>
      </trkpt>
      <trkpt lat="45.81611" lon="4.55021">
        <ele>367</ele>
        <time>2019-06-28T21:46:44Z</time>
      </trkpt>
      <trkpt lat="45.81605" lon="4.55026">
        <ele>366</ele>
        <time>2019-06-28T21:46:45Z</time>
      </trkpt>
      <trkpt lat="45.81602" lon="4.55018">
        <ele>365</ele>
        <time>2019-06-28T21:46:47Z</time>
      </trkpt>
      <trkpt lat="45.81601" lon="4.55001">
        <ele>364</ele>
        <time>2019-06-28T21:46:50Z</time>
      </trkpt>
      <trkpt lat="45.81606" lon="4.54959">
        <ele>364</ele>
        <time>2019-06-28T21:46:56Z</time>
      </trkpt>
      <trkpt lat="45.81617" lon="4.54924">
        <ele>366</ele>
        <time>2019-06-28T21:47:03Z</time>
      </trkpt>
      <trkpt lat="45.81646" lon="4.54879">
        <ele>368</ele>
        <time>2019-06-28T21:47:13Z</time>
      </trkpt>
      <trkpt lat="45.81651" lon="4.54844">
        <ele>366</ele>
        <time>2019-06-28T21:47:19Z</time>
      </trkpt>
      <trkpt lat="45.81649" lon="4.54821">
        <ele>364</ele>
        <time>2019-06-28T21:47:22Z</time>
      </trkpt>
      <trkpt lat="45.81644" lon="4.54809">
        <ele>363</ele>
        <time>2019-06-28T21:47:25Z</time>
      </trkpt>
      <trkpt lat="45.81617" lon="4.54823">
        <ele>359</ele>
        <time>2019-06-28T21:47:31Z</time>
      </trkpt>
      <trkpt lat="45.81599" lon="4.54836">
        <ele>356</ele>
        <time>2019-06-28T21:47:36Z</time>
      </trkpt>
      <trkpt lat="45.81595" lon="4.54834">
        <ele>355</ele>
        <time>2019-06-28T21:47:37Z</time>
      </trkpt>
      <trkpt lat="45.81598" lon="4.54812">
        <ele>356</ele>
        <time>2019-06-28T21:47:41Z</time>
      </trkpt>
      <trkpt lat="45.81615" lon="4.54744">
        <ele>358</ele>
        <time>2019-06-28T21:47:52Z</time>
      </trkpt>
      <trkpt lat="45.81628" lon="4.54724">
        <ele>358</ele>
        <time>2019-06-28T21:47:57Z</time>
      </trkpt>
      <trkpt lat="45.81629" lon="4.54683">
        <ele>356</ele>
        <time>2019-06-28T21:48:03Z</time>
      </trkpt>
      <trkpt lat="45.81609" lon="4.54674">
        <ele>357</ele>
        <time>2019-06-28T21:48:08Z</time>
      </trkpt>
      <trkpt lat="45.81546" lon="4.54668">
        <ele>365</ele>
        <time>2019-06-28T21:48:23Z</time>
      </trkpt>
      <trkpt lat="45.81525" lon="4.54648">
        <ele>371</ele>
        <time>2019-06-28T21:48:29Z</time>
      </trkpt>
      <trkpt lat="45.81523" lon="4.54687">
        <ele>369</ele>
        <time>2019-06-28T21:48:35Z</time>
      </trkpt>
      <trkpt lat="45.81516" lon="4.54729">
        <ele>368</ele>
        <time>2019-06-28T21:48:42Z</time>
      </trkpt>
      <trkpt lat="45.81506" lon="4.54754">
        <ele>369</ele>
        <time>2019-06-28T21:48:47Z</time>
      </trkpt>
      <trkpt lat="45.81477" lon="4.54784">
        <ele>371</ele>
        <time>2019-06-28T21:48:55Z</time>
      </trkpt>
      <trkpt lat="45.8143" lon="4.54864">
        <ele>375</ele>
        <time>2019-06-28T21:49:12Z</time>
      </trkpt>
      <trkpt lat="45.81392" lon="4.5496">
        <ele>377</ele>
        <time>2019-06-28T21:49:30Z</time>
      </trkpt>
      <trkpt lat="45.81338" lon="4.5506">
        <ele>380</ele>
        <time>2019-06-28T21:49:51Z</time>
      </trkpt>
      <trkpt lat="45.81258" lon="4.5513">
        <ele>383</ele>
        <time>2019-06-28T21:50:13Z</time>
      </trkpt>
      <trkpt lat="45.81205" lon="4.55149">
        <ele>388</ele>
        <time>2019-06-28T21:50:26Z</time>
      </trkpt>
      <trkpt lat="45.81178" lon="4.55142">
        <ele>393</ele>
        <time>2019-06-28T21:50:32Z</time>
      </trkpt>
      <trkpt lat="45.81144" lon="4.55141">
        <ele>397</ele>
        <time>2019-06-28T21:50:40Z</time>
      </trkpt>
      <trkpt lat="45.81107" lon="4.55177">
        <ele>397</ele>
        <time>2019-06-28T21:50:50Z</time>
      </trkpt>
      <trkpt lat="45.81019" lon="4.55226">
        <ele>404</ele>
        <time>2019-06-28T21:51:13Z</time>
      </trkpt>
      <trkpt lat="45.80975" lon="4.55291">
        <ele>405</ele>
        <time>2019-06-28T21:51:27Z</time>
      </trkpt>
      <trkpt lat="45.80978" lon="4.55349">
        <ele>399</ele>
        <time>2019-06-28T21:51:37Z</time>
      </trkpt>
      <trkpt lat="45.8096" lon="4.55397">
        <ele>396</ele>
        <time>2019-06-28T21:51:46Z</time>
      </trkpt>
      <trkpt lat="45.8094" lon="4.55425">
        <ele>395</ele>
        <time>2019-06-28T21:51:52Z</time>
      </trkpt>
      <trkpt lat="45.8092" lon="4.55444">
        <ele>396</ele>
        <time>2019-06-28T21:51:58Z</time>
      </trkpt>
      <trkpt lat="45.80871" lon="4.55536">
        <ele>396</ele>
        <time>2019-06-28T21:52:17Z</time>
      </trkpt>
      <trkpt lat="45.80851" lon="4.55524">
        <ele>399</ele>
        <time>2019-06-28T21:52:22Z</time>
      </trkpt>
      <trkpt lat="45.80679" lon="4.55511">
        <ele>415</ele>
        <time>2019-06-28T21:53:02Z</time>
      </trkpt>
      <trkpt lat="45.80614" lon="4.5551">
        <ele>416</ele>
        <time>2019-06-28T21:53:17Z</time>
      </trkpt>
      <trkpt lat="45.8059" lon="4.55649">
        <ele>412</ele>
        <time>2019-06-28T21:53:40Z</time>
      </trkpt>
      <trkpt lat="45.80576" lon="4.55715">
        <ele>412</ele>
        <time>2019-06-28T21:53:52Z</time>
      </trkpt>
      <trkpt lat="45.80554" lon="4.55784">
        <ele>411</ele>
        <time>2019-06-28T21:54:04Z</time>
      </trkpt>
      <trkpt lat="45.80534" lon="4.55857">
        <ele>409</ele>
        <time>2019-06-28T21:54:17Z</time>
      </trkpt>
      <trkpt lat="45.80517" lon="4.55905">
        <ele>407</ele>
        <time>2019-06-28T21:54:25Z</time>
      </trkpt>
      <trkpt lat="45.80512" lon="4.55976">
        <ele>403</ele>
        <time>2019-06-28T21:54:37Z</time>
      </trkpt>
      <trkpt lat="45.80498" lon="4.56098">
        <ele>402</ele>
        <time>2019-06-28T21:54:57Z</time>
      </trkpt>
      <trkpt lat="45.80476" lon="4.56182">
        <ele>398</ele>
        <time>2019-06-28T21:55:12Z</time>
      </trkpt>
      <trkpt lat="45.80468" lon="4.56262">
        <ele>394</ele>
        <time>2019-06-28T21:55:25Z</time>
      </trkpt>
      <trkpt lat="45.80472" lon="4.56327">
        <ele>392</ele>
        <time>2019-06-28T21:55:36Z</time>
      </trkpt>
      <trkpt lat="45.80478" lon="4.56367">
        <ele>392</ele>
        <time>2019-06-28T21:55:42Z</time>
      </trkpt>
      <trkpt lat="45.80504" lon="4.56437">
        <ele>394</ele>
        <time>2019-06-28T21:55:55Z</time>
      </trkpt>
      <trkpt lat="45.80532" lon="4.56532">
        <ele>399</ele>
        <time>2019-06-28T21:56:12Z</time>
      </trkpt>
      <trkpt lat="45.80534" lon="4.56626">
        <ele>402</ele>
        <time>2019-06-28T21:56:27Z</time>
      </trkpt>
      <trkpt lat="45.80529" lon="4.56756">
        <ele>401</ele>
        <time>2019-06-28T21:56:48Z</time>
      </trkpt>
      <trkpt lat="45.8053" lon="4.56808">
        <ele>399</ele>
        <time>2019-06-28T21:56:57Z</time>
      </trkpt>
      <trkpt lat="45.80535" lon="4.56883">
        <ele>394</ele>
        <time>2019-06-28T21:57:09Z</time>
      </trkpt>
      <trkpt lat="45.80554" lon="4.56934">
        <ele>392</ele>
        <time>2019-06-28T21:57:19Z</time>
      </trkpt>
      <trkpt lat="45.80563" lon="4.56973">
        <ele>389</ele>
        <time>2019-06-28T21:57:25Z</time>
      </trkpt>
      <trkpt lat="45.8056" lon="4.5705">
        <ele>382</ele>
        <time>2019-06-28T21:57:38Z</time>
      </trkpt>
      <trkpt lat="45.80555" lon="4.57077">
        <ele>380</ele>
        <time>2019-06-28T21:57:42Z</time>
      </trkpt>
      <trkpt lat="45.80536" lon="4.57115">
        <ele>375</ele>
        <time>2019-06-28T21:57:50Z</time>
      </trkpt>
      <trkpt lat="45.80491" lon="4.57231">
        <ele>365</ele>
        <time>2019-06-28T21:58:12Z</time>
      </trkpt>
      <trkpt lat="45.80437" lon="4.57402">
        <ele>355</ele>
        <time>2019-06-28T21:58:42Z</time>
      </trkpt>
      <trkpt lat="45.80439" lon="4.57523">
        <ele>348</ele>
        <time>2019-06-28T21:59:02Z</time>
      </trkpt>
      <trkpt lat="45.80422" lon="4.57602">
        <ele>343</ele>
        <time>2019-06-28T21:59:15Z</time>
      </trkpt>
      <trkpt lat="45.80414" lon="4.57655">
        <ele>340</ele>
        <time>2019-06-28T21:59:24Z</time>
      </trkpt>
      <trkpt lat="45.80405" lon="4.57762">
        <ele>336</ele>
        <time>2019-06-28T21:59:42Z</time>
      </trkpt>
      <trkpt lat="45.80411" lon="4.57913">
        <ele>332</ele>
        <time>2019-06-28T22:00:06Z</time>
      </trkpt>
      <trkpt lat="45.80421" lon="4.57963">
        <ele>332</ele>
        <time>2019-06-28T22:00:15Z</time>
      </trkpt>
      <trkpt lat="45.80441" lon="4.58002">
        <ele>331</ele>
        <time>2019-06-28T22:00:23Z</time>
      </trkpt>
      <trkpt lat="45.80483" lon="4.58072">
        <ele>330</ele>
        <time>2019-06-28T22:00:38Z</time>
      </trkpt>
      <trkpt lat="45.80598" lon="4.58235">
        <ele>325</ele>
        <time>2019-06-28T22:01:16Z</time>
      </trkpt>
      <trkpt lat="45.80625" lon="4.58283">
        <ele>324</ele>
        <time>2019-06-28T22:01:26Z</time>
      </trkpt>
      <trkpt lat="45.80645" lon="4.58331">
        <ele>324</ele>
        <time>2019-06-28T22:01:35Z</time>
      </trkpt>
      <trkpt lat="45.80663" lon="4.58357">
        <ele>323</ele>
        <time>2019-06-28T22:01:41Z</time>
      </trkpt>
      <trkpt lat="45.8068" lon="4.58407">
        <ele>324</ele>
        <time>2019-06-28T22:01:50Z</time>
      </trkpt>
      <trkpt lat="45.80698" lon="4.58475">
        <ele>321</ele>
        <time>2019-06-28T22:02:02Z</time>
      </trkpt>
      <trkpt lat="45.80701" lon="4.58496">
        <ele>320</ele>
        <time>2019-06-28T22:02:05Z</time>
      </trkpt>
      <trkpt lat="45.80703" lon="4.58541">
        <ele>318</ele>
        <time>2019-06-28T22:02:12Z</time>
      </trkpt>
      <trkpt lat="45.80702" lon="4.58619">
        <ele>315</ele>
        <time>2019-06-28T22:02:25Z</time>
      </trkpt>
      <trkpt lat="45.80707" lon="4.5865">
        <ele>313</ele>
        <time>2019-06-28T22:02:30Z</time>
      </trkpt>
      <trkpt lat="45.80711" lon="4.58657">
        <ele>312</ele>
        <time>2019-06-28T22:02:32Z</time>
      </trkpt>
      <trkpt lat="45.80696" lon="4.58689">
        <ele>311</ele>
        <time>2019-06-28T22:02:38Z</time>
      </trkpt>
      <trkpt lat="45.80615" lon="4.58764">
        <ele>306</ele>
        <time>2019-06-28T22:03:00Z</time>
      </trkpt>
      <trkpt lat="45.80579" lon="4.58788">
        <ele>303</ele>
        <time>2019-06-28T22:03:10Z</time>
      </trkpt>
      <trkpt lat="45.80549" lon="4.58805">
        <ele>302</ele>
        <time>2019-06-28T22:03:17Z</time>
      </trkpt>
      <trkpt lat="45.80525" lon="4.58815">
        <ele>301</ele>
        <time>2019-06-28T22:03:23Z</time>
      </trkpt>
      <trkpt lat="45.80484" lon="4.58842">
        <ele>299</ele>
        <time>2019-06-28T22:03:34Z</time>
      </trkpt>
      <trkpt lat="45.80438" lon="4.58878">
        <ele>295</ele>
        <time>2019-06-28T22:03:46Z</time>
      </trkpt>
      <trkpt lat="45.80411" lon="4.58892">
        <ele>294</ele>
        <time>2019-06-28T22:03:53Z</time>
      </trkpt>
      <trkpt lat="45.80386" lon="4.58901">
        <ele>292</ele>
        <time>2019-06-28T22:03:59Z</time>
      </trkpt>
      <trkpt lat="45.80292" lon="4.58907">
        <ele>286</ele>
        <time>2019-06-28T22:04:21Z</time>
      </trkpt>
      <trkpt lat="45.80254" lon="4.58891">
        <ele>283</ele>
        <time>2019-06-28T22:04:30Z</time>
      </trkpt>
      <trkpt lat="45.80224" lon="4.58892">
        <ele>279</ele>
        <time>2019-06-28T22:04:37Z</time>
      </trkpt>
      <trkpt lat="45.80148" lon="4.58887">
        <ele>268</ele>
        <time>2019-06-28T22:04:55Z</time>
      </trkpt>
      <trkpt lat="45.8013" lon="4.58891">
        <ele>265</ele>
        <time>2019-06-28T22:04:59Z</time>
      </trkpt>
      <trkpt lat="45.80088" lon="4.58921">
        <ele>259</ele>
        <time>2019-06-28T22:05:10Z</time>
      </trkpt>
      <trkpt lat="45.80064" lon="4.58935">
        <ele>257</ele>
        <time>2019-06-28T22:05:16Z</time>
      </trkpt>
      <trkpt lat="45.80024" lon="4.58998">
        <ele>255</ele>
        <time>2019-06-28T22:05:30Z</time>
      </trkpt>
      <trkpt lat="45.80016" lon="4.58991">
        <ele>255</ele>
        <time>2019-06-28T22:05:32Z</time>
      </trkpt>
      <trkpt lat="45.8001" lon="4.58978">
        <ele>255</ele>
        <time>2019-06-28T22:05:34Z</time>
      </trkpt>
      <trkpt lat="45.80008" lon="4.58937">
        <ele>255</ele>
        <time>2019-06-28T22:05:41Z</time>
      </trkpt>
      <trkpt lat="45.8" lon="4.58942">
        <ele>255</ele>
        <time>2019-06-28T22:05:43Z</time>
      </trkpt>
      <trkpt lat="45.79967" lon="4.58928">
        <ele>254</ele>
        <time>2019-06-28T22:05:51Z</time>
      </trkpt>
      <trkpt lat="45.79955" lon="4.5893">
        <ele>254</ele>
        <time>2019-06-28T22:05:54Z</time>
      </trkpt>
      <trkpt lat="45.79951" lon="4.58912">
        <ele>255</ele>
        <time>2019-06-28T22:05:57Z</time>
      </trkpt>
      <trkpt lat="45.79939" lon="4.58893">
        <ele>258</ele>
        <time>2019-06-28T22:06:01Z</time>
      </trkpt>
      <trkpt lat="45.79868" lon="4.58856">
        <ele>263</ele>
        <time>2019-06-28T22:06:19Z</time>
      </trkpt>
      <trkpt lat="45.79833" lon="4.58851">
        <ele>263</ele>
        <time>2019-06-28T22:06:27Z</time>
      </trkpt>
      <trkpt lat="45.79815" lon="4.58859">
        <ele>260</ele>
        <time>2019-06-28T22:06:32Z</time>
      </trkpt>
      <trkpt lat="45.79779" lon="4.58919">
        <ele>251</ele>
        <time>2019-06-28T22:06:44Z</time>
      </trkpt>
      <trkpt lat="45.79714" lon="4.59036">
        <ele>253</ele>
        <time>2019-06-28T22:07:09Z</time>
      </trkpt>
      <trkpt lat="45.79693" lon="4.59036">
        <ele>254</ele>
        <time>2019-06-28T22:07:14Z</time>
      </trkpt>
      <trkpt lat="45.79668" lon="4.59031">
        <ele>254</ele>
        <time>2019-06-28T22:07:20Z</time>
      </trkpt>
      <trkpt lat="45.79659" lon="4.59038">
        <ele>255</ele>
        <time>2019-06-28T22:07:22Z</time>
      </trkpt>
      <trkpt lat="45.79642" lon="4.59068">
        <ele>258</ele>
        <time>2019-06-28T22:07:28Z</time>
      </trkpt>
      <trkpt lat="45.79623" lon="4.59093">
        <ele>261</ele>
        <time>2019-06-28T22:07:34Z</time>
      </trkpt>
      <trkpt lat="45.7959" lon="4.59133">
        <ele>267</ele>
        <time>2019-06-28T22:07:44Z</time>
      </trkpt>
      <trkpt lat="45.79572" lon="4.59143">
        <ele>271</ele>
        <time>2019-06-28T22:07:49Z</time>
      </trkpt>
      <trkpt lat="45.79548" lon="4.59181">
        <ele>278</ele>
        <time>2019-06-28T22:07:57Z</time>
      </trkpt>
      <trkpt lat="45.79495" lon="4.59204">
        <ele>289</ele>
        <time>2019-06-28T22:08:10Z</time>
      </trkpt>
      <trkpt lat="45.79465" lon="4.59208">
        <ele>293</ele>
        <time>2019-06-28T22:08:17Z</time>
      </trkpt>
      <trkpt lat="45.79445" lon="4.59215">
        <ele>296</ele>
        <time>2019-06-28T22:08:22Z</time>
      </trkpt>
      <trkpt lat="45.79389" lon="4.59242">
        <ele>303</ele>
        <time>2019-06-28T22:08:36Z</time>
      </trkpt>
      <trkpt lat="45.79372" lon="4.59247">
        <ele>304</ele>
        <time>2019-06-28T22:08:40Z</time>
      </trkpt>
      <trkpt lat="45.79352" lon="4.59244">
        <ele>305</ele>
        <time>2019-06-28T22:08:45Z</time>
      </trkpt>
      <trkpt lat="45.79329" lon="4.59248">
        <ele>307</ele>
        <time>2019-06-28T22:08:50Z</time>
      </trkpt>
      <trkpt lat="45.79285" lon="4.59297">
        <ele>312</ele>
        <time>2019-06-28T22:09:03Z</time>
      </trkpt>
      <trkpt lat="45.79269" lon="4.5931">
        <ele>313</ele>
        <time>2019-06-28T22:09:07Z</time>
      </trkpt>
      <trkpt lat="45.79256" lon="4.59314">
        <ele>314</ele>
        <time>2019-06-28T22:09:10Z</time>
      </trkpt>
      <trkpt lat="45.79212" lon="4.5932">
        <ele>319</ele>
        <time>2019-06-28T22:09:21Z</time>
      </trkpt>
      <trkpt lat="45.7917" lon="4.59333">
        <ele>325</ele>
        <time>2019-06-28T22:09:31Z</time>
      </trkpt>
      <trkpt lat="45.7915" lon="4.59334">
        <ele>327</ele>
        <time>2019-06-28T22:09:35Z</time>
      </trkpt>
      <trkpt lat="45.7913" lon="4.59327">
        <ele>328</ele>
        <time>2019-06-28T22:09:40Z</time>
      </trkpt>
      <trkpt lat="45.79102" lon="4.59322">
        <ele>331</ele>
        <time>2019-06-28T22:09:47Z</time>
      </trkpt>
      <trkpt lat="45.79083" lon="4.59323">
        <ele>333</ele>
        <time>2019-06-28T22:09:51Z</time>
      </trkpt>
      <trkpt lat="45.79068" lon="4.59332">
        <ele>336</ele>
        <time>2019-06-28T22:09:55Z</time>
      </trkpt>
      <trkpt lat="45.79049" lon="4.59334">
        <ele>339</ele>
        <time>2019-06-28T22:10:00Z</time>
      </trkpt>
      <trkpt lat="45.79036" lon="4.59342">
        <ele>341</ele>
        <time>2019-06-28T22:10:03Z</time>
      </trkpt>
      <trkpt lat="45.78975" lon="4.59416">
        <ele>353</ele>
        <time>2019-06-28T22:10:21Z</time>
      </trkpt>
      <trkpt lat="45.78899" lon="4.59444">
        <ele>367</ele>
        <time>2019-06-28T22:10:40Z</time>
      </trkpt>
      <trkpt lat="45.78864" lon="4.59464">
        <ele>377</ele>
        <time>2019-06-28T22:10:49Z</time>
      </trkpt>
      <trkpt lat="45.7884" lon="4.59469">
        <ele>383</ele>
        <time>2019-06-28T22:10:54Z</time>
      </trkpt>
      <trkpt lat="45.78827" lon="4.59468">
        <ele>385</ele>
        <time>2019-06-28T22:10:57Z</time>
      </trkpt>
      <trkpt lat="45.7879" lon="4.59449">
        <ele>388</ele>
        <time>2019-06-28T22:11:06Z</time>
      </trkpt>
      <trkpt lat="45.78757" lon="4.59417">
        <ele>386</ele>
        <time>2019-06-28T22:11:16Z</time>
      </trkpt>
      <trkpt lat="45.78739" lon="4.59406">
        <ele>385</ele>
        <time>2019-06-28T22:11:20Z</time>
      </trkpt>
      <trkpt lat="45.78684" lon="4.59381">
        <ele>383</ele>
        <time>2019-06-28T22:11:34Z</time>
      </trkpt>
      <trkpt lat="45.78615" lon="4.59345">
        <ele>379</ele>
        <time>2019-06-28T22:11:51Z</time>
      </trkpt>
      <trkpt lat="45.78609" lon="4.5934">
        <ele>378</ele>
        <time>2019-06-28T22:11:53Z</time>
      </trkpt>
      <trkpt lat="45.78605" lon="4.59322">
        <ele>377</ele>
        <time>2019-06-28T22:11:56Z</time>
      </trkpt>
      <trkpt lat="45.78604" lon="4.59301">
        <ele>377</ele>
        <time>2019-06-28T22:11:59Z</time>
      </trkpt>
      <trkpt lat="45.78627" lon="4.59205">
        <ele>364</ele>
        <time>2019-06-28T22:12:16Z</time>
      </trkpt>
      <trkpt lat="45.78625" lon="4.59195">
        <ele>363</ele>
        <time>2019-06-28T22:12:17Z</time>
      </trkpt>
      <trkpt lat="45.7857" lon="4.59137">
        <ele>367</ele>
        <time>2019-06-28T22:12:33Z</time>
      </trkpt>
      <trkpt lat="45.78554" lon="4.59124">
        <ele>367</ele>
        <time>2019-06-28T22:12:38Z</time>
      </trkpt>
      <trkpt lat="45.78514" lon="4.59096">
        <ele>367</ele>
        <time>2019-06-28T22:12:48Z</time>
      </trkpt>
      <trkpt lat="45.785" lon="4.5909">
        <ele>368</ele>
        <time>2019-06-28T22:12:51Z</time>
      </trkpt>
      <trkpt lat="45.78458" lon="4.59058">
        <ele>360</ele>
        <time>2019-06-28T22:13:02Z</time>
      </trkpt>
      <trkpt lat="45.7839" lon="4.59021">
        <ele>353</ele>
        <time>2019-06-28T22:13:19Z</time>
      </trkpt>
      <trkpt lat="45.78374" lon="4.59009">
        <ele>349</ele>
        <time>2019-06-28T22:13:24Z</time>
      </trkpt>
      <trkpt lat="45.78367" lon="4.58999">
        <ele>347</ele>
        <time>2019-06-28T22:13:26Z</time>
      </trkpt>
      <trkpt lat="45.78357" lon="4.59005">
        <ele>348</ele>
        <time>2019-06-28T22:13:29Z</time>
      </trkpt>
      <trkpt lat="45.78231" lon="4.59033">
        <ele>351</ele>
        <time>2019-06-28T22:13:58Z</time>
      </trkpt>
      <trkpt lat="45.782" lon="4.59033">
        <ele>351</ele>
        <time>2019-06-28T22:14:06Z</time>
      </trkpt>
      <trkpt lat="45.78155" lon="4.59024">
        <ele>348</ele>
        <time>2019-06-28T22:14:16Z</time>
      </trkpt>
      <trkpt lat="45.78109" lon="4.59035">
        <ele>349</ele>
        <time>2019-06-28T22:14:27Z</time>
      </trkpt>
      <trkpt lat="45.78095" lon="4.59035">
        <ele>349</ele>
        <time>2019-06-28T22:14:30Z</time>
      </trkpt>
    </trkseg>
  </trk>
</gpx>